Have a Safe July 4th! 

Flight Track Log - Related Links

Times and Time Zones

All times are in EDT time to prevent confusion due to time zone crossing. See the AFL150 flight status page for this flight to view local times or setup timezone preferences in your user account.

Time Position Orientation Groundspeed Altitude Reporting Facility
EDT Latitude Longitude Course Direction KTS MPH feet Rate Location/Type
Thu 06:24:11 AM 55.9740 37.4310 331° Northwest 96 110  Level FlightAware ADS-B
Thu 06:24:59 AM 55.9650 37.3710 255° West 157 181 1,800 1,909 Climbing FlightAware ADS-B
Thu 06:25:39 AM 55.9580 37.3240 255° West 181 208 2,800 1,333 Climbing FlightAware ADS-B
Thu 06:26:11 AM 55.9500 37.2670 256° West 220 253 3,400 1,595 Climbing FlightAware ADS-B
Thu 06:26:58 AM 55.9630 37.1880 286° West 249 287 4,900 2,211 Climbing FlightAware ADS-B
Thu 06:27:27 AM 55.9780 37.1270 294° West 255 293 6,200 2,852 Climbing FlightAware ADS-B
Thu 06:27:59 AM 55.9940 37.0660 295° West 251 289 7,800 2,667 Climbing FlightAware ADS-B
Thu 06:28:39 AM 56.0140 36.9900 295° West 260 299 9,400 2,250 Climbing FlightAware ADS-B
Thu 06:29:11 AM 56.0300 36.9280 295° West 271 312 10,500 1,333 Climbing FlightAware ADS-B
Thu 06:29:51 AM 56.0530 36.8380 295° West 315 362 11,000 900 Climbing FlightAware ADS-B
Thu 06:30:31 AM 56.0790 36.7360 295° West 351 404 11,700 1,565 Climbing FlightAware ADS-B
Thu 06:31:23 AM 56.1140 36.5960 294° West 368 423 13,400 2,063 Climbing FlightAware ADS-B
Thu 06:32:07 AM 56.1450 36.4730 294° West 374 430 15,000 2,333 Climbing FlightAware ADS-B
Thu 06:33:11 AM 56.1910 36.2890 294° West 372 428 17,600 2,340 Climbing FlightAware ADS-B
Thu 06:33:47 AM 56.2170 36.1880 295° West 372 428 18,900 1,974 Climbing FlightAware ADS-B
Thu 06:34:27 AM 56.2430 36.0800 293° West 378 435 20,100 1,750 Climbing FlightAware ADS-B
Thu 06:34:59 AM 56.2670 35.9850 294° West 383 441 21,000 1,562 Climbing FlightAware ADS-B
Thu 06:35:40 AM 56.2960 35.8650 294° West 390 449 22,000 1,425 Climbing FlightAware ADS-B
Thu 06:36:19 AM 56.3250 35.7450 294° West 399 459 22,900 1,319 Climbing FlightAware ADS-B
Thu 06:37:11 AM 56.3640 35.5840 294° West 407 468 24,000 1,295 Climbing FlightAware ADS-B
Thu 06:37:47 AM 56.3910 35.4700 293° West 414 476 24,800 1,500 Climbing FlightAware ADS-B
Thu 06:38:19 AM 56.4200 35.3720 298° West 414 476 25,700 1,263 Climbing FlightAware ADS-B
Thu 06:39:03 AM 56.4690 35.2480 306° West 423 487 26,400 1,050 Climbing FlightAware ADS-B
Thu 06:39:39 AM 56.5190 35.1560 315° West 432 497 27,100 1,083 Climbing FlightAware ADS-B
Thu 06:40:15 AM 56.5750 35.0780 323° Northwest 440 506 27,700 975 Climbing FlightAware ADS-B
Thu 06:40:59 AM 56.6510 35.0050 332° Northwest 451 519 28,400 1,000 Climbing FlightAware ADS-B
Thu 06:41:39 AM 56.7370 34.9570 343° North 465 535 29,100 1,184 Climbing FlightAware ADS-B
Thu 06:42:15 AM 56.8140 34.9390 353° North 468 539 29,900 1,227 Climbing FlightAware ADS-B
Thu 06:43:07 AM 56.9260 34.9440 North 472 543 30,900 1,000 Climbing FlightAware ADS-B
Thu 06:43:51 AM 57.0190 34.9510 North 474 545 31,500 750 Climbing FlightAware ADS-B
Thu 06:44:35 AM 57.1210 34.9540 North 479 551 32,000 675 Climbing FlightAware ADS-B
Thu 06:45:11 AM 57.1990 34.9570 North 480 552 32,400 1,159 Climbing FlightAware ADS-B
Thu 06:46:03 AM 57.3150 34.9600 North 467 537 33,700 960 Climbing FlightAware ADS-B
Thu 06:46:51 AM 57.4140 34.9630 North 474 545 34,000 196 Climbing FlightAware ADS-B
Thu 06:47:35 AM 57.5110 34.9660 North 476 548 34,000  Level FlightAware ADS-B
Thu 06:48:14 AM 57.5990 34.9560 357° North 463 533 34,000  Level FlightAware ADS-B
Thu 06:49:04 AM 57.7010 34.9130 347° North 450 518 34,000  Level FlightAware ADS-B
Thu 06:49:39 AM 57.7680 34.8650 339° North 440 506 34,000  Level FlightAware ADS-B
Thu 06:50:09 AM 57.8230 34.8130 333° Northwest 434 499 34,000  Level FlightAware ADS-B
Thu 06:50:34 AM 57.8610 34.7690 328° Northwest 431 496 34,000  Level FlightAware ADS-B
Thu 06:51:29 AM 57.9520 34.6430 324° Northwest 428 493 34,000  Level FlightAware ADS-B
Thu 06:52:09 AM 58.0140 34.5550 323° Northwest 428 493 34,000  Level FlightAware ADS-B
Thu 06:52:54 AM 58.0850 34.4560 324° Northwest 426 490 34,000  Level FlightAware ADS-B
Thu 06:53:39 AM 58.1580 34.3540 324° Northwest 426 490 34,000  Level FlightAware ADS-B
Thu 06:54:14 AM 58.2100 34.2750 321° Northwest 424 488 34,000  Level FlightAware ADS-B
Thu 06:55:09 AM 58.2950 34.1450 321° Northwest 422 486 34,000  Level FlightAware ADS-B
Thu 06:55:34 AM 58.3320 34.0870 321° Northwest 422 486 34,000  Level FlightAware ADS-B
Thu 06:56:07 AM 58.3810 34.0130 322° Northwest 422 486 34,000  Level FlightAware ADS-B
Thu 06:56:35 AM 58.4230 33.9480 321° Northwest 422 486 34,000  Level FlightAware ADS-B
Thu 06:57:23 AM 58.4960 33.8350 321° Northwest 425 489 34,000  Level FlightAware ADS-B
Thu 06:57:52 AM 58.5350 33.7740 321° Northwest 425 489 34,000  Level FlightAware ADS-B
Thu 06:58:43 AM 58.6180 33.6450 321° Northwest 426 490 34,000  Level FlightAware ADS-B
Thu 06:59:07 AM 58.6530 33.5910 321° Northwest 426 490 34,000  Level FlightAware ADS-B
Thu 06:59:55 AM 58.7270 33.4740 321° Northwest 425 489 34,000  Level FlightAware ADS-B
Thu 07:00:30 AM 58.7730 33.3850 315° West 419 482 34,000  Level FlightAware ADS-B
Thu 07:01:10 AM 58.8310 33.2770 316° Northwest 422 486 34,000  Level FlightAware ADS-B
Thu 07:01:50 AM 58.8880 33.1670 315° West 420 483 34,000  Level FlightAware ADS-B
Thu 07:02:30 AM 58.9440 33.0590 315° West 422 486 34,000  Level FlightAware ADS-B
Thu 07:03:04 AM 58.9880 32.9720 314° West 415 478 34,000  Level FlightAware ADS-B
Thu 07:03:54 AM 59.0570 32.8360 315° West 422 486 34,000  Level FlightAware ADS-B
Thu 07:04:34 AM 59.1110 32.7290 315° West 422 486 34,000  Level FlightAware ADS-B
Thu 07:05:09 AM 59.1600 32.6330 315° West 421 484 34,000  Level FlightAware ADS-B
Thu 07:05:44 AM 59.2040 32.5450 314° West 421 484 34,000  Level FlightAware ADS-B
Thu 07:06:29 AM 59.2680 32.4160 314° West 422 486 34,000 -282 Level FlightAware ADS-B
Thu 07:07:09 AM 59.3200 32.3110 314° West 426 490 33,600 -675 Descending FlightAware ADS-B
Thu 07:07:49 AM 59.3760 32.1980 314° West 424 488 33,100 -474 Descending FlightAware ADS-B
Thu 07:08:25 AM 59.4210 32.0980 312° West 414 476 33,000 -86 Descending FlightAware ADS-B
Thu 07:08:59 AM 59.4580 31.9890 304° West 411 473 33,000  Level FlightAware ADS-B
Thu 07:09:26 AM 59.4790 31.9110 298° West 408 470 33,000  Level FlightAware ADS-B
Thu 07:10:09 AM 59.5130 31.7600 294° West 405 466 33,000  Level FlightAware ADS-B
Thu 07:10:49 AM 59.5440 31.6190 293° West 402 463 33,000  Level FlightAware ADS-B
Thu 07:11:39 AM 59.5800 31.4510 293° West 404 465 33,000  Level FlightAware ADS-B
Thu 07:12:15 AM 59.6030 31.3440 293° West 403 464 33,000  Level FlightAware ADS-B
Thu 07:12:54 AM 59.6340 31.1980 293° West 399 459 33,000  Level FlightAware ADS-B
Thu 07:13:33 AM 59.6620 31.0660 293° West 398 458 33,000  Level FlightAware ADS-B
Thu 07:14:06 AM 59.6850 30.9580 293° West 396 456 33,000  Level FlightAware ADS-B
Thu 07:14:45 AM 59.7120 30.8280 292° West 395 455 33,000  Level FlightAware ADS-B
Thu 07:15:33 AM 59.7460 30.6680 293° West 394 453 33,000  Level FlightAware ADS-B
Thu 07:16:05 AM 59.7640 30.5590 288° West 391 450 33,000  Level FlightAware ADS-B
Thu 07:16:33 AM 59.7790 30.4590 287° West 389 448 33,000  Level FlightAware ADS-B
Thu 07:17:22 AM 59.7910 30.2900 278° West 380 437 33,000  Level FlightAware ADS-B
Thu 07:18:25 AM 59.7830 30.0800 266° West 375 432 33,000  Level FlightAware ADS-B
Thu 07:19:05 AM 59.7670 29.9500 256° West 375 432 33,000  Level FlightAware ADS-B
Thu 07:19:45 AM 59.7490 29.8090 256° West 373 429 33,000  Level FlightAware ADS-B
Thu 07:20:30 AM 59.7300 29.6600 256° West 375 432 33,000  Level FlightAware ADS-B
Thu 07:21:20 AM 59.7100 29.4960 256° West 377 434 33,000  Level FlightAware ADS-B
Thu 07:22:04 AM 59.7180 29.3450 276° West 383 441 33,000 198 Level FlightAware ADS-B
Thu 07:22:51 AM 59.7340 29.1830 281° West 379 436 33,300 522 Climbing FlightAware ADS-B
Thu 07:23:36 AM 59.7480 29.0300 280° West 383 441 33,800 494 Climbing FlightAware ADS-B
Thu 07:24:16 AM 59.7600 28.8930 280° West 390 449 34,000 135 Climbing FlightAware ADS-B
Thu 07:25:05 AM 59.7750 28.7150 280° West 403 464 34,000  Level FlightAware ADS-B
Thu 07:25:53 AM 59.7910 28.5400 280° West 403 464 34,000  Level FlightAware ADS-B
Thu 07:26:37 AM 59.8040 28.3840 279° West 402 463 34,000  Level FlightAware ADS-B
Thu 07:27:21 AM 59.8180 28.2210 280° West 399 459 34,000  Level FlightAware ADS-B
Thu 07:27:58 AM 59.8290 28.0870 279° West 397 457 34,000  Level FlightAware ADS-B
Thu 07:28:46 AM 59.8430 27.9150 279° West 399 459 34,000  Level FlightAware ADS-B
Thu 07:29:27 AM 59.8540 27.7670 278° West 402 463 34,000  Level FlightAware ADS-B
Thu 07:30:00 AM 59.8640 27.6470 279° West 403 464 34,000  Level FlightAware ADS-B
Thu 07:30:33 AM 59.8730 27.5270 279° West 402 463 34,000  Level FlightAware ADS-B
Thu 07:31:15 AM 59.8850 27.3790 279° West 401 461 34,000  Level FlightAware ADS-B
Thu 07:31:55 AM 59.8960 27.2280 278° West 400 460 34,000  Level FlightAware ADS-B
Thu 07:32:34 AM 59.9070 27.0870 279° West 400 460 34,000  Level FlightAware ADS-B
Thu 07:33:15 AM 59.9170 26.9450 278° West 401 461 34,000  Level FlightAware ADS-B
Thu 07:33:48 AM 59.9260 26.8180 278° West 404 465 34,000  Level FlightAware ADS-B
Thu 07:34:31 AM 59.9380 26.6590 279° West 406 467 34,000  Level FlightAware ADS-B
Thu 07:35:12 AM 59.9490 26.5060 278° West 410 472 34,000  Level FlightAware ADS-B
Thu 07:35:55 AM 59.9690 26.3480 284° West 418 481 34,000  Level FlightAware ADS-B
Thu 07:36:32 AM 59.9960 26.2140 292° West 425 489 34,000  Level FlightAware ADS-B
Thu 07:37:07 AM 60.0280 26.0950 298° West 433 498 34,000  Level FlightAware ADS-B
Thu 07:37:48 AM 60.0920 25.9810 318° Northwest 463 533 34,000  Level FlightAware ADS-B
Thu 07:38:27 AM 60.1630 25.8930 328° Northwest 463 533 34,000  Level FlightAware ADS-B
Thu 07:39:08 AM 60.2380 25.8000 328° Northwest 463 533 34,000  Level FlightAware ADS-B
Thu 07:39:49 AM 60.3130 25.7070 328° Northwest 461 531 34,000  Level FlightAware ADS-B
Thu 07:40:32 AM 60.3900 25.6090 328° Northwest 459 528 34,000  Level FlightAware ADS-B
Thu 07:41:05 AM 60.4480 25.5350 328° Northwest 460 529 34,000  Level FlightAware ADS-B
Thu 07:41:49 AM 60.5260 25.4330 327° Northwest 462 532 34,000  Level FlightAware ADS-B
Thu 07:42:34 AM 60.6080 25.3270 328° Northwest 463 533 34,000  Level FlightAware ADS-B
Thu 07:43:06 AM 60.6630 25.2550 327° Northwest 462 532 34,000  Level FlightAware ADS-B
Thu 07:43:37 AM 60.7220 25.1780 327° Northwest 460 529 34,000  Level FlightAware ADS-B
Thu 07:44:18 AM 60.7920 25.0860 327° Northwest 458 527 34,000  Level FlightAware ADS-B
Thu 07:44:55 AM 60.8600 24.9960 327° Northwest 458 527 34,000  Level FlightAware ADS-B
Thu 07:45:43 AM 60.9450 24.8830 327° Northwest 458 527 34,000  Level FlightAware ADS-B
Thu 07:46:35 AM 61.0390 24.7580 327° Northwest 458 527 34,000  Level FlightAware ADS-B
Thu 07:47:23 AM 61.1190 24.6500 327° Northwest 459 528 34,000  Level FlightAware ADS-B
Thu 07:47:58 AM 61.1870 24.5570 327° Northwest 460 529 34,000  Level FlightAware ADS-B
Thu 07:48:38 AM 61.2540 24.4670 327° Northwest 460 529 34,000  Level FlightAware ADS-B
Thu 07:49:15 AM 61.3210 24.3740 326° Northwest 461 531 34,000  Level FlightAware ADS-B
Thu 07:49:58 AM 61.3960 24.2720 327° Northwest 461 531 34,000  Level FlightAware ADS-B
Thu 07:50:39 AM 61.4710 24.1680 326° Northwest 462 532 34,000  Level FlightAware ADS-B
Thu 07:51:14 AM 61.5330 24.0810 326° Northwest 462 532 34,000  Level FlightAware ADS-B
Thu 07:51:50 AM 61.5970 23.9920 327° Northwest 464 534 34,000  Level FlightAware ADS-B
Thu 07:52:32 AM 61.6710 23.8880 326° Northwest 462 532 34,000  Level FlightAware ADS-B
Thu 07:53:09 AM 61.7320 23.8010 326° Northwest 459 528 34,000  Level FlightAware ADS-B
Thu 07:53:44 AM 61.7940 23.7120 326° Northwest 458 527 34,000  Level FlightAware ADS-B
Thu 07:54:25 AM 61.8670 23.6090 326° Northwest 457 526 34,000  Level FlightAware ADS-B
Thu 07:55:00 AM 61.9270 23.5220 326° Northwest 458 527 34,000  Level FlightAware ADS-B
Thu 07:55:47 AM 62.0150 23.3950 326° Northwest 459 528 34,000  Level FlightAware ADS-B
Thu 07:56:31 AM 62.0900 23.2870 326° Northwest 458 527 34,000  Level FlightAware ADS-B
Thu 07:57:09 AM 62.1570 23.1870 325° Northwest 457 526 34,000  Level FlightAware ADS-B
Thu 07:58:00 AM 62.2450 23.0590 326° Northwest 456 525 34,000  Level FlightAware ADS-B
Thu 07:58:47 AM 62.3260 22.9370 325° Northwest 453 521 34,000  Level FlightAware ADS-B
Thu 07:59:33 AM 62.4050 22.8200 326° Northwest 454 522 34,000  Level FlightAware ADS-B
Thu 08:00:01 AM 62.4520 22.7490 325° Northwest 455 524 34,000  Level FlightAware ADS-B
Thu 08:00:49 AM 62.5350 22.6240 325° Northwest 458 527 34,000  Level FlightAware ADS-B
Thu 08:01:37 AM 62.6130 22.5060 325° Northwest 460 529 34,000  Level FlightAware ADS-B
Thu 08:02:17 AM 62.6840 22.3970 325° Northwest 463 533 34,000  Level FlightAware ADS-B
Thu 08:02:57 AM 62.7590 22.2820 325° Northwest 464 534 34,000  Level FlightAware ADS-B
Thu 08:03:27 AM 62.8110 22.2020 325° Northwest 464 534 34,000  Level FlightAware ADS-B
Thu 08:04:23 AM 62.9060 22.0540 325° Northwest 462 532 34,000  Level FlightAware ADS-B
Thu 08:04:57 AM 62.9630 21.9640 324° Northwest 461 531 34,000  Level FlightAware ADS-B
Thu 08:05:32 AM 63.0270 21.8640 325° Northwest 461 531 34,000  Level FlightAware ADS-B
Thu 08:06:17 AM 63.1040 21.7420 324° Northwest 460 529 34,000  Level FlightAware ADS-B
Thu 08:07:07 AM 63.1870 21.6090 324° Northwest 462 532 34,000  Level FlightAware ADS-B
Thu 08:07:54 AM 63.2660 21.4820 324° Northwest 463 533 34,000  Level FlightAware ADS-B
Thu 08:08:42 AM 63.3480 21.3490 324° Northwest 465 535 34,000  Level FlightAware ADS-B
Thu 08:09:12 AM 63.4040 21.2580 324° Northwest 464 534 34,000  Level FlightAware ADS-B
Thu 08:09:49 AM 63.4720 21.1470 324° Northwest 465 535 34,000  Level FlightAware ADS-B
Thu 08:10:34 AM 63.5490 21.0200 324° Northwest 464 534 34,000  Level FlightAware ADS-B
Thu 08:10:59 AM 63.5910 20.9510 324° Northwest 463 533 34,000  Level FlightAware ADS-B
Thu 08:11:48 AM 63.6560 20.8100 316° Northwest 462 532 34,000  Level FlightAware ADS-B
Thu 08:12:27 AM 63.7210 20.6730 317° Northwest 463 533 34,000  Level FlightAware ADS-B
Thu 08:13:15 AM 63.8000 20.5060 317° Northwest 462 532 34,000  Level FlightAware ADS-B
Thu 08:13:56 AM 63.8600 20.3770 317° Northwest 461 531 34,000  Level FlightAware ADS-B
Thu 08:14:42 AM 63.9340 20.2170 317° Northwest 461 531 34,000  Level FlightAware ADS-B
Thu 08:15:12 AM 63.9830 20.1110 317° Northwest 461 531 34,000  Level FlightAware ADS-B
Thu 08:15:44 AM 64.0320 20.0060 317° Northwest 461 531 34,000  Level FlightAware ADS-B
Thu 08:16:32 AM 64.1020 19.8530 316° Northwest 461 531 34,000  Level FlightAware ADS-B
Thu 08:16:59 AM 64.1460 19.7550 316° Northwest 462 532 34,000  Level FlightAware ADS-B
Thu 08:17:53 AM 64.2310 19.5680 316° Northwest 463 533 34,000  Level FlightAware ADS-B
Thu 08:18:29 AM 64.2860 19.4450 316° Northwest 463 533 34,000  Level FlightAware ADS-B
Thu 08:19:12 AM 64.3530 19.2940 316° Northwest 460 529 34,000  Level FlightAware ADS-B
Thu 08:20:29 AM 64.4690 19.0310 316° Northwest 458 527 34,000  Level FlightAware ADS-B
Thu 08:21:05 AM 64.5220 18.9090 315° West 459 528 34,000  Level FlightAware ADS-B
Thu 08:21:37 AM 64.5700 18.7980 315° West 461 531 34,000  Level FlightAware ADS-B
Thu 08:22:19 AM 64.6340 18.6500 315° West 461 531 34,000  Level FlightAware ADS-B
Thu 08:22:57 AM 64.6910 18.5180 315° West 462 532 34,000  Level FlightAware ADS-B
Thu 08:24:04 AM 64.7920 18.2790 315° West 463 533 34,000  Level FlightAware ADS-B
Thu 08:24:47 AM 64.8550 18.1300 315° West 462 532 34,000  Level FlightAware ADS-B
Thu 08:25:35 AM 64.9270 17.9580 315° West 462 532 34,000  Level FlightAware ADS-B
Thu 08:26:23 AM 64.9990 17.7830 314° West 462 532 34,000  Level FlightAware ADS-B
Thu 08:26:59 AM 65.0530 17.6530 315° West 463 533 34,000  Level FlightAware ADS-B
Thu 08:27:35 AM 65.1040 17.5290 314° West 463 533 34,000  Level FlightAware ADS-B
Thu 08:28:19 AM 65.1720 17.3600 314° West 463 533 34,000  Level FlightAware ADS-B
Thu 08:28:59 AM 65.2310 17.2140 314° West 462 532 34,000  Level FlightAware ADS-B
Thu 08:29:47 AM 65.3000 17.0410 314° West 460 529 34,000  Level FlightAware ADS-B
Thu 08:30:51 AM 65.3950 16.8030 314° West 458 527 34,000  Level FlightAware ADS-B
Thu 08:31:35 AM 65.4570 16.6450 313° West 458 527 34,000  Level FlightAware ADS-B
Thu 08:32:23 AM 65.5280 16.4630 313° West 458 527 34,000  Level FlightAware ADS-B
Thu 08:33:03 AM 65.5840 16.3160 313° West 457 526 34,000  Level FlightAware ADS-B
Thu 08:33:50 AM 65.6530 16.1380 313° West 458 527 34,000  Level FlightAware ADS-B
Thu 08:34:30 AM 65.7080 15.9930 313° West 459 528 34,000  Level FlightAware ADS-B
Thu 08:35:07 AM 65.7620 15.8500 313° West 460 529 34,000  Level FlightAware ADS-B
Thu 08:35:38 AM 65.8060 15.7330 313° West 460 529 34,000  Level FlightAware ADS-B
Thu 08:36:24 AM 65.8730 15.5540 313° West 460 529 34,000  Level FlightAware ADS-B
Thu 08:37:12 AM 65.9370 15.3810 312° West 461 531 34,000  Level FlightAware ADS-B
Thu 08:37:52 AM 65.9970 15.2180 312° West 461 531 34,000  Level FlightAware ADS-B
Thu 08:38:24 AM 66.0420 15.0950 312° West 460 529 34,000  Level FlightAware ADS-B
Thu 08:39:15 AM 66.1160 14.8910 312° West 458 527 34,000  Level FlightAware ADS-B
Thu 08:39:45 AM 66.1540 14.7840 311° West 457 526 34,000  Level FlightAware ADS-B
Thu 08:40:26 AM 66.2140 14.6150 311° West 449 517 34,000  Level FlightAware ADS-B
Thu 08:41:01 AM 66.2630 14.4780 312° West 447 514 34,000  Level FlightAware ADS-B
Thu 08:41:41 AM 66.3160 14.3270 311° West 445 512 34,000  Level FlightAware ADS-B
Thu 08:42:22 AM 66.3740 14.1620 311° West 444 511 34,000  Level FlightAware ADS-B
Thu 08:42:57 AM 66.4210 14.0260 311° West 449 517 34,000  Level FlightAware ADS-B
Thu 08:43:48 AM 66.4890 13.8300 311° West 449 517 34,000  Level FlightAware ADS-B
Thu 08:44:22 AM 66.5350 13.6950 311° West 448 516 34,000  Level FlightAware ADS-B
Thu 08:45:13 AM 66.6020 13.4990 311° West 446 513 34,000  Level FlightAware ADS-B
Thu 08:45:52 AM 66.6560 13.3390 310° West 447 514 34,000  Level FlightAware ADS-B
Thu 08:46:37 AM 66.7150 13.1600 310° West 447 514 34,000  Level FlightAware ADS-B
Thu 08:47:07 AM 66.7510 13.0530 310° West 447 514 34,000  Level FlightAware ADS-B
Thu 08:47:45 AM 66.8050 12.8880 310° West 441 507 34,000  Level FlightAware ADS-B
Thu 08:48:24 AM 66.8560 12.7330 310° West 440 506 34,000  Level FlightAware ADS-B
Thu 08:49:00 AM 66.9040 12.5870 310° West 439 505 34,000  Level FlightAware ADS-B
Thu 08:49:45 AM 66.9600 12.4110 309° West 437 503 34,000  Level FlightAware ADS-B
Thu 08:50:55 AM 67.0470 12.1390 309° West 440 506 34,000  Level FlightAware ADS-B
Thu 08:51:36 AM 67.1040 11.9590 309° West 438 504 34,000 152 Level FlightAware ADS-B
Thu 08:52:14 AM 67.1530 11.8050 309° West 441 507 34,200 456 Climbing FlightAware ADS-B
Thu 08:52:55 AM 67.2010 11.6510 309° West 442 509 34,600 462 Climbing FlightAware ADS-B
Thu 08:53:32 AM 67.2440 11.5060 308° West 441 507 34,800 164 Climbing FlightAware ADS-B
Thu 08:54:08 AM 67.2810 11.3770 307° West 441 507 34,800  Level FlightAware ADS-B
Thu 08:54:57 AM 67.3320 11.2010 307° West 441 507 34,800  Level FlightAware ADS-B
Thu 08:55:33 AM 67.3700 11.0720 307° West 441 507 34,800  Level FlightAware ADS-B
Thu 08:56:45 AM 67.4450 10.8120 307° West 441 507 34,800  Level FlightAware ADS-B
Thu 08:57:21 AM 67.4830 10.6820 307° West 441 507 34,800  Level FlightAware ADS-B
Thu 08:57:57 AM 67.5200 10.5520 307° West 441 507 34,800  Level FlightAware ADS-B
Thu 08:58:33 AM 67.5580 10.4210 307° West 441 507 34,800  Level FlightAware ADS-B
Thu 08:59:21 AM 67.6080 10.2470 307° West 441 507 34,800  Level FlightAware ADS-B
Thu 08:59:57 AM 67.6450 10.1160 307° West 441 507 34,800  Level FlightAware ADS-B
Thu 09:00:33 AM 67.6830 9.9850 307° West 441 507 34,800  Level FlightAware ADS-B
Thu 09:01:10 AM 67.7210 9.8490 306° West 441 507 34,800  Level FlightAware ADS-B
Thu 09:01:46 AM 67.7590 9.7180 308° West 441 507 34,800  Level FlightAware ADS-B
Thu 09:02:24 AM 67.7990 9.5790 307° West 441 507 34,800  Level FlightAware ADS-B
Thu 09:03:00 AM 67.8360 9.4460 306° West 441 507 34,800 20 Level FlightAware ADS-B
Thu 09:06:00 AM 67.8979 8.5465 281° West  Level Estimated
Thu 09:07:00 AM 67.9174 8.2456 280° West  Level Estimated
Thu 09:08:00 AM 67.9364 7.9442 280° West  Level Estimated
Thu 09:09:00 AM 67.9548 7.6424 279° West  Level Estimated
Thu 09:10:00 AM 67.9727 7.3401 279° West  Level Estimated
Thu 09:11:00 AM 67.9900 7.0373 279° West  Level Estimated
Thu 09:12:00 AM 68.0068 6.7340 279° West  Level Estimated
Thu 09:13:00 AM 68.0230 6.4303 278° West  Level Estimated
Thu 09:14:00 AM 68.0386 6.1263 278° West  Level Estimated
Thu 09:15:00 AM 68.0537 5.8218 278° West  Level Estimated
Thu 09:16:00 AM 68.0682 5.5169 277° West  Level Estimated
Thu 09:17:00 AM 68.0822 5.2116 277° West  Level Estimated
Thu 09:18:00 AM 68.0956 4.9060 277° West  Level Estimated
Thu 09:19:00 AM 68.1084 4.6000 277° West  Level Estimated
Thu 09:20:00 AM 68.1207 4.2937 276° West  Level Estimated
Thu 09:21:00 AM 68.1324 3.9871 276° West  Level Estimated
Thu 09:22:00 AM 68.1435 3.6802 276° West  Level Estimated
Thu 09:23:00 AM 68.1541 3.3730 275° West  Level Estimated
Thu 09:24:00 AM 68.1640 3.0655 275° West  Level Estimated
Thu 09:25:00 AM 68.1735 2.7577 275° West  Level Estimated
Thu 09:26:00 AM 68.1823 2.4497 275° West  Level Estimated
Thu 09:27:00 AM 68.1906 2.1415 274° West  Level Estimated
Thu 09:28:00 AM 68.1983 1.8331 274° West  Level Estimated
Thu 09:29:00 AM 68.2054 1.5244 274° West  Level Estimated
Thu 09:30:00 AM 68.2120 1.2156 273° West  Level Estimated
Thu 09:31:00 AM 68.2180 0.9066 273° West  Level Estimated
Thu 09:32:00 AM 68.2234 0.5974 273° West  Level Estimated
Thu 09:33:00 AM 68.2282 0.2882 273° West  Level Estimated
Thu 09:34:00 AM 68.2325 -0.0213 272° West  Level Estimated
Thu 09:35:00 AM 68.2362 -0.3308 272° West  Level Estimated
Thu 09:36:00 AM 68.2393 -0.6404 272° West  Level Estimated
Thu 09:37:00 AM 68.2418 -0.9501 271° West  Level Estimated
Thu 09:38:00 AM 68.2438 -1.2598 271° West  Level Estimated
Thu 09:39:00 AM 68.2451 -1.5696 271° West  Level Estimated
Thu 09:40:00 AM 68.2459 -1.8794 271° West  Level Estimated
Thu 09:41:00 AM 68.2462 -2.1893 270° West  Level Estimated
Thu 09:42:00 AM 68.2458 -2.4991 270° West  Level Estimated
Thu 09:43:00 AM 68.2449 -2.8089 270° West  Level Estimated
Thu 09:44:00 AM 68.2434 -3.1187 269° West  Level Estimated
Thu 09:45:00 AM 68.2413 -3.4285 269° West  Level Estimated
Thu 09:46:00 AM 68.2386 -3.7381 269° West  Level Estimated
Thu 09:47:00 AM 68.2354 -4.0477 269° West  Level Estimated
Thu 09:48:00 AM 68.2316 -4.3572 268° West  Level Estimated
Thu 09:49:00 AM 68.2272 -4.6666 268° West  Level Estimated
Thu 09:50:00 AM 68.2223 -4.9759 268° West  Level Estimated
Thu 09:51:00 AM 68.2167 -5.2850 267° West  Level Estimated
Thu 09:52:00 AM 68.2106 -5.5940 267° West  Level Estimated
Thu 09:53:00 AM 68.2039 -5.9028 267° West  Level Estimated
Thu 09:54:00 AM 68.1967 -6.2113 267° West  Level Estimated
Thu 09:55:00 AM 68.1889 -6.5198 266° West  Level Estimated
Thu 09:56:00 AM 68.1805 -6.8279 266° West  Level Estimated
Thu 09:57:00 AM 68.1715 -7.1359 266° West  Level Estimated
Thu 09:58:00 AM 68.1619 -7.4436 265° West  Level Estimated
Thu 09:59:00 AM 68.1518 -7.7510 265° West  Level Estimated
Thu 10:00:00 AM 68.1412 -8.0582 265° West  Level Estimated
Thu 10:01:00 AM 68.1299 -8.3650 265° West  Level Estimated
Thu 10:02:00 AM 68.1181 -8.6716 264° West  Level Estimated
Thu 10:03:00 AM 68.1057 -8.9778 264° West  Level Estimated
Thu 10:04:00 AM 68.0928 -9.2837 264° West  Level Estimated
Thu 10:05:00 AM 68.0792 -9.5893 263° West  Level Estimated
Thu 10:06:00 AM 68.0651 -9.8945 263° West  Level Estimated
Thu 10:07:00 AM 68.0505 -10.1993 263° West  Level Estimated
Thu 10:08:00 AM 68.0353 -10.5037 263° West  Level Estimated
Thu 10:09:00 AM 68.0195 -10.8077 262° West  Level Estimated
Thu 10:10:00 AM 68.0032 -11.1112 262° West  Level Estimated
Thu 10:11:00 AM 67.9864 -11.4144 262° West  Level Estimated
Thu 10:12:00 AM 67.9689 -11.7171 261° West  Level Estimated
Thu 10:13:00 AM 67.9509 -12.0193 261° West  Level Estimated
Thu 10:14:00 AM 67.9324 -12.3211 261° West  Level Estimated
Thu 10:15:00 AM 67.9133 -12.6223 261° West  Level Estimated
Thu 10:16:00 AM 67.8936 -12.9231 260° West  Level Estimated
Thu 10:17:00 AM 67.8734 -13.2234 260° West  Level Estimated
Thu 10:18:00 AM 67.8527 -13.5231 260° West  Level Estimated
Thu 10:19:00 AM 67.8314 -13.8223 259° West  Level Estimated
Thu 10:20:00 AM 67.8095 -14.1209 259° West  Level Estimated
Thu 10:21:00 AM 67.7872 -14.4190 259° West  Level Estimated
Thu 10:22:00 AM 67.7642 -14.7164 259° West  Level Estimated
Thu 10:23:00 AM 67.7408 -15.0133 258° West  Level Estimated
Thu 10:24:00 AM 67.7168 -15.3097 258° West  Level Estimated
Thu 10:25:00 AM 67.6922 -15.6053 258° West  Level Estimated
Thu 10:26:00 AM 67.6672 -15.9004 258° West  Level Estimated
Thu 10:27:00 AM 67.6416 -16.1948 257° West  Level Estimated
Thu 10:28:00 AM 67.6154 -16.4886 257° West  Level Estimated
Thu 10:29:00 AM 67.5888 -16.7818 257° West  Level Estimated
Thu 10:30:00 AM 67.5616 -17.0742 256° West  Level Estimated
Thu 10:31:00 AM 67.5338 -17.3660 256° West  Level Estimated
Thu 10:32:00 AM 67.5056 -17.6571 256° West  Level Estimated
Thu 10:33:00 AM 67.4768 -17.9475 256° West  Level Estimated
Thu 10:34:00 AM 67.4475 -18.2372 255° West  Level Estimated
Thu 10:35:00 AM 67.4177 -18.5262 255° West  Level Estimated
Thu 10:36:00 AM 67.3874 -18.8144 255° West  Level Estimated
Thu 10:37:00 AM 67.3566 -19.1019 255° West  Level Estimated
Thu 10:38:00 AM 67.3253 -19.3887 254° West  Level Estimated
Thu 10:39:00 AM 67.2934 -19.6747 254° West  Level Estimated
Thu 10:40:00 AM 67.2610 -19.9599 254° West  Level Estimated
Thu 10:41:00 AM 67.2282 -20.2444 254° West  Level Estimated
Thu 10:42:00 AM 67.1948 -20.5280 253° West  Level Estimated
Thu 10:43:00 AM 67.1609 -20.8109 253° West  Level Estimated
Thu 10:44:00 AM 67.1266 -21.0930 253° West  Level Estimated
Thu 10:45:00 AM 67.0917 -21.3743 252° West  Level Estimated
Thu 10:46:00 AM 67.0564 -21.6548 252° West  Level Estimated
Thu 10:47:00 AM 67.0205 -21.9344 252° West  Level Estimated
Thu 10:48:00 AM 66.9842 -22.2132 252° West  Level Estimated
Thu 10:49:00 AM 66.9474 -22.4912 251° West  Level Estimated
Thu 10:50:00 AM 66.9101 -22.7684 251° West  Level Estimated
Thu 10:51:00 AM 66.8723 -23.0446 251° West  Level Estimated
Thu 10:52:00 AM 66.8340 -23.3201 251° West  Level Estimated
Thu 10:53:00 AM 66.7953 -23.5947 250° West  Level Estimated
Thu 10:54:00 AM 66.7560 -23.8683 250° West  Level Estimated
Thu 10:55:00 AM 66.7163 -24.1412 250° West  Level Estimated
Thu 10:56:00 AM 66.6762 -24.4131 250° West  Level Estimated
Thu 10:57:00 AM 66.6356 -24.6842 249° West  Level Estimated
Thu 10:58:00 AM 66.5945 -24.9543 249° West  Level Estimated
Thu 10:59:00 AM 66.5529 -25.2236 249° West  Level Estimated
Thu 11:00:00 AM 66.5109 -25.4919 249° West  Level Estimated
Thu 11:01:00 AM 66.4684 -25.7594 248° West  Level Estimated
Thu 11:02:00 AM 66.4255 -26.0259 248° West  Level Estimated
Thu 11:03:00 AM 66.3821 -26.2915 248° West  Level Estimated
Thu 11:04:00 AM 66.3382 -26.5562 248° West  Level Estimated
Thu 11:05:00 AM 66.2940 -26.8200 247° West  Level Estimated
Thu 11:06:00 AM 66.2492 -27.0828 247° West  Level Estimated
Thu 11:07:00 AM 66.2041 -27.3447 247° West  Level Estimated
Thu 11:08:00 AM 66.1584 -27.6056 247° West  Level Estimated
Thu 11:09:00 AM 66.1124 -27.8656 246° West  Level Estimated
Thu 11:10:00 AM 66.0659 -28.1247 246° West  Level Estimated
Thu 11:11:00 AM 66.0190 -28.3828 246° West  Level Estimated
Thu 11:12:00 AM 65.9716 -28.6400 246° West  Level Estimated
Thu 11:13:00 AM 65.9239 -28.8962 246° West  Level Estimated
Thu 11:14:00 AM 65.8757 -29.1514 245° Southwest  Level Estimated
Thu 11:15:00 AM 65.8270 -29.4057 245° Southwest  Level Estimated
Thu 11:16:00 AM 65.7780 -29.6591 245° Southwest  Level Estimated
Thu 11:17:00 AM 65.7285 -29.9114 245° Southwest  Level Estimated
Thu 11:18:00 AM 65.6787 -30.1628 244° Southwest  Level Estimated
Thu 11:19:00 AM 65.6284 -30.4132 244° Southwest  Level Estimated
Thu 11:20:00 AM 65.5777 -30.6627 244° Southwest  Level Estimated
Thu 11:21:00 AM 65.5266 -30.9111 244° Southwest  Level Estimated
Thu 11:22:00 AM 65.4751 -31.1586 243° Southwest  Level Estimated
Thu 11:23:00 AM 65.4231 -31.4052 243° Southwest  Level Estimated
Thu 11:24:00 AM 65.3708 -31.6507 243° Southwest  Level Estimated
Thu 11:25:00 AM 65.3181 -31.8953 243° Southwest  Level Estimated
Thu 11:26:00 AM 65.2650 -32.1389 243° Southwest  Level Estimated
Thu 11:27:00 AM 65.2115 -32.3815 242° Southwest  Level Estimated
Thu 11:28:00 AM 65.1576 -32.6231 242° Southwest  Level Estimated
Thu 11:29:00 AM 65.1034 -32.8637 242° Southwest  Level Estimated
Thu 11:30:00 AM 65.0487 -33.1033 242° Southwest  Level Estimated
Thu 11:31:00 AM 64.9937 -33.3420 241° Southwest  Level Estimated
Thu 11:32:00 AM 64.9382 -33.5797 241° Southwest  Level Estimated
Thu 11:33:00 AM 64.8824 -33.8164 241° Southwest  Level Estimated
Thu 11:34:00 AM 64.8263 -34.0521 241° Southwest  Level Estimated
Thu 11:35:00 AM 64.7697 -34.2868 241° Southwest  Level Estimated
Thu 11:36:00 AM 64.7128 -34.5205 240° Southwest  Level Estimated
Thu 11:37:00 AM 64.6555 -34.7533 240° Southwest  Level Estimated
Thu 11:38:00 AM 64.5979 -34.9851 240° Southwest  Level Estimated
Thu 11:39:00 AM 64.5399 -35.2159 240° Southwest  Level Estimated
Thu 11:40:00 AM 64.4816 -35.4457 240° Southwest  Level Estimated
Thu 11:41:00 AM 64.4228 -35.6745 239° Southwest  Level Estimated
Thu 11:42:00 AM 64.3638 -35.9024 239° Southwest  Level Estimated
Thu 11:43:00 AM 64.3043 -36.1292 239° Southwest  Level Estimated
Thu 11:44:00 AM 64.2446 -36.3551 239° Southwest  Level Estimated
Thu 11:44:11 AM 67.4480 -44.4750 239° Southwest 464 534 38,000  Level FlightAware ADS-B
Thu 11:44:50 AM 67.3880 -44.6310 225° Southwest 465 535 38,000  Level FlightAware ADS-B
Thu 11:45:00 AM 64.1844 -36.5800 239° Southwest  Level Estimated
Thu 11:45:38 AM 67.3140 -44.8190 224° Southwest 464 534 38,000  Level FlightAware ADS-B
Thu 11:46:25 AM 67.2420 -45.0020 225° Southwest 463 533 38,000  Level FlightAware ADS-B
Thu 11:47:06 AM 67.1800 -45.1600 225° Southwest 461 531 38,000  Level FlightAware ADS-B
Thu 11:47:38 AM 67.1320 -45.2790 224° Southwest 461 531 38,000  Level FlightAware ADS-B
Thu 11:48:22 AM 67.0650 -45.4460 224° Southwest 458 527 38,000  Level FlightAware ADS-B
Thu 11:49:08 AM 66.9970 -45.6130 224° Southwest 458 527 38,000  Level FlightAware ADS-B
Thu 11:49:42 AM 66.9430 -45.7450 224° Southwest 456 525 38,000  Level FlightAware ADS-B
Thu 11:50:26 AM 66.8760 -45.9080 224° Southwest 456 525 38,000  Level FlightAware ADS-B
Thu 11:51:02 AM 66.8220 -46.0390 224° Southwest 455 524 38,000  Level FlightAware ADS-B
Thu 11:51:52 AM 66.7440 -46.2240 223° Southwest 456 525 38,000  Level FlightAware ADS-B
Thu 11:52:26 AM 66.6920 -46.3470 223° Southwest 457 526 38,000  Level FlightAware ADS-B
Thu 11:53:08 AM 66.6290 -46.4960 223° Southwest 457 526 38,000  Level FlightAware ADS-B
Thu 11:53:58 AM 66.5510 -46.6800 223° Southwest 457 526 38,000  Level FlightAware ADS-B
Thu 11:54:38 AM 66.4880 -46.8250 223° Southwest 457 526 38,000  Level FlightAware ADS-B
Thu 11:55:02 AM 66.4530 -46.9060 223° Southwest 457 526 38,000  Level FlightAware ADS-B
Thu 11:56:16 AM 66.3550 -47.1280 222° Southwest 457 526 38,000  Level FlightAware ADS-B
Thu 11:57:02 AM 66.2930 -47.2660 222° Southwest 457 526 38,000  Level FlightAware ADS-B
Thu 11:57:27 AM 66.2600 -47.3400 222° Southwest 457 526 38,000  Level FlightAware ADS-B
Thu 11:58:16 AM 66.1940 -47.4870 222° Southwest 457 526 38,000  Level FlightAware ADS-B
Thu 11:59:04 AM 66.1300 -47.6290 222° Southwest 457 526 38,000  Level FlightAware ADS-B
Thu 11:59:29 AM 66.0970 -47.7040 223° Southwest 457 526 38,000  Level FlightAware ADS-B
Thu 12:00:06 PM 66.0470 -47.8130 222° Southwest 457 526 38,000  Level FlightAware ADS-B
Thu 12:00:52 PM 65.9860 -47.9490 222° Southwest 457 526 38,000  Level FlightAware ADS-B
Thu 12:01:31 PM 65.9340 -48.0640 222° Southwest 457 526 38,000  Level FlightAware ADS-B
Thu 12:02:30 PM 65.8550 -48.2380 222° Southwest 457 526 38,000  Level FlightAware ADS-B
Thu 12:03:19 PM 65.7890 -48.3820 222° Southwest 457 526 38,000  Level FlightAware ADS-B
Thu 12:03:56 PM 65.7400 -48.4900 222° Southwest 457 526 38,000  Level FlightAware ADS-B
Thu 12:04:56 PM 65.6600 -48.6650 222° Southwest 457 526 38,000  Level FlightAware ADS-B
Thu 12:08:00 PM 65.4040 -49.2488 224° Southwest  Level Estimated
Thu 12:09:00 PM 65.3200 -49.4367 223° Southwest  Level Estimated
Thu 12:10:00 PM 65.2358 -49.6234 223° Southwest  Level Estimated
Thu 12:11:00 PM 65.1514 -49.8089 223° Southwest  Level Estimated
Thu 12:12:00 PM 65.0667 -49.9932 223° Southwest  Level Estimated
Thu 12:13:00 PM 64.9818 -50.1764 222° Southwest  Level Estimated
Thu 12:14:00 PM 64.8967 -50.3584 222° Southwest  Level Estimated
Thu 12:14:47 PM 64.7140 -51.1710 222° Southwest 453 521 38,000  Level FlightAware ADS-B
Thu 12:15:00 PM 64.8114 -50.5392 222° Southwest  Level Estimated
Thu 12:15:25 PM 64.6750 -51.3260 240° Southwest 453 521 38,000  Level FlightAware ADS-B
Thu 12:16:02 PM 64.6350 -51.4870 240° Southwest 454 522 38,000  Level FlightAware ADS-B
Thu 12:16:32 PM 64.6020 -51.6130 239° Southwest 455 524 38,000  Level FlightAware ADS-B
Thu 12:17:13 PM 64.5580 -51.7840 239° Southwest 456 525 38,000  Level FlightAware ADS-B
Thu 12:17:53 PM 64.5150 -51.9500 239° Southwest 457 526 38,000  Level FlightAware ADS-B
Thu 12:18:29 PM 64.4760 -52.1020 239° Southwest 458 527 38,000  Level FlightAware ADS-B
Thu 12:19:13 PM 64.4300 -52.2770 239° Southwest 459 528 38,000  Level FlightAware ADS-B
Thu 12:19:55 PM 64.3820 -52.4590 239° Southwest 458 527 38,000  Level FlightAware ADS-B
Thu 12:20:27 PM 64.3460 -52.5920 238° Southwest 456 525 38,000  Level FlightAware ADS-B
Thu 12:21:03 PM 64.3060 -52.7410 238° Southwest 455 524 38,000  Level FlightAware ADS-B
Thu 12:21:46 PM 64.2580 -52.9200 238° Southwest 457 526 38,000  Level FlightAware ADS-B
Thu 12:22:16 PM 64.2260 -53.0360 238° Southwest 458 527 38,000  Level FlightAware ADS-B
Thu 12:23:05 PM 64.1800 -53.2080 239° Southwest 458 527 38,000  Level FlightAware ADS-B
Thu 12:23:43 PM 64.1270 -53.3980 237° Southwest 461 531 38,000  Level FlightAware ADS-B
Thu 12:24:18 PM 64.0860 -53.5430 237° Southwest 461 531 38,000  Level FlightAware ADS-B
Thu 12:24:57 PM 64.0460 -53.6840 237° Southwest 461 531 38,000  Level FlightAware ADS-B
Thu 12:25:33 PM 64.0110 -53.8090 237° Southwest 461 531 38,000  Level FlightAware ADS-B
Thu 12:26:23 PM 63.9610 -53.9820 237° Southwest 461 531 38,000  Level FlightAware ADS-B
Thu 12:27:11 PM 63.9140 -54.1480 237° Southwest 461 531 38,000  Level FlightAware ADS-B
Thu 12:27:45 PM 63.8800 -54.2660 237° Southwest 461 531 38,000  Level FlightAware ADS-B
Thu 12:28:36 PM 63.8300 -54.4420 237° Southwest 461 531 38,000  Level FlightAware ADS-B
Thu 12:29:25 PM 63.7820 -54.6100 237° Southwest 461 531 38,000  Level FlightAware ADS-B
Thu 12:30:01 PM 63.7460 -54.7340 237° Southwest 461 531 38,000  Level FlightAware ADS-B
Thu 12:30:37 PM 63.7110 -54.8580 238° Southwest 461 531 38,000  Level FlightAware ADS-B
Thu 12:31:13 PM 63.6750 -54.9810 237° Southwest 461 531 38,000  Level FlightAware ADS-B
Thu 12:31:37 PM 63.6510 -55.0640 237° Southwest 461 531 38,000  Level FlightAware ADS-B
Thu 12:32:25 PM 63.6040 -55.2280 237° Southwest 461 531 38,000  Level FlightAware ADS-B
Thu 12:33:02 PM 63.5670 -55.3540 237° Southwest 461 531 38,000  Level FlightAware ADS-B
Thu 12:33:25 PM 63.5450 -55.4330 238° Southwest 461 531 38,000  Level FlightAware ADS-B
Thu 12:34:02 PM 63.5080 -55.5590 237° Southwest 461 531 38,000  Level FlightAware ADS-B
Thu 12:34:26 PM 63.4840 -55.6410 237° Southwest 461 531 38,000  Level FlightAware ADS-B
Thu 12:38:00 PM 63.2193 -56.4289 236° Southwest  Level FlightAware Approximate
Thu 12:39:00 PM 63.1480 -56.6529 235° Southwest  Level FlightAware Approximate
Thu 12:40:00 PM 63.0764 -56.8758 235° Southwest  Level FlightAware Approximate
Thu 12:41:00 PM 63.0045 -57.0976 235° Southwest  Level FlightAware Approximate
Thu 12:42:00 PM 62.9322 -57.3183 234° Southwest  Level FlightAware Approximate
Thu 12:43:00 PM 62.8596 -57.5379 234° Southwest  Level FlightAware Approximate
Thu 12:44:00 PM 62.7868 -57.7568 234° Southwest  Level FlightAware Approximate
Thu 12:45:00 PM 62.7138 -57.9746 234° Southwest  Level FlightAware Approximate
Thu 12:46:00 PM 62.6404 -58.1914 234° Southwest  Level FlightAware Approximate
Thu 12:47:00 PM 62.5666 -58.4071 233° Southwest  Level FlightAware Approximate
Thu 12:48:00 PM 62.4926 -58.6217 233° Southwest  Level FlightAware Approximate
Thu 12:49:00 PM 62.4182 -58.8353 233° Southwest  Level FlightAware Approximate
Thu 12:50:00 PM 62.3435 -59.0478 233° Southwest  Level FlightAware Approximate
Thu 12:51:00 PM 62.2684 -59.2592 233° Southwest  Level FlightAware Approximate
Thu 12:52:00 PM 62.1931 -59.4696 233° Southwest  Level FlightAware Approximate
Thu 12:53:00 PM 62.1174 -59.6790 232° Southwest  Level FlightAware Approximate
Thu 12:54:00 PM 62.0414 -59.8872 232° Southwest  Level FlightAware Approximate
Thu 12:55:00 PM 61.9575 -60.0790 221° Southwest  Level FlightAware Approximate
Thu 12:56:00 PM 61.8641 -60.2512 221° Southwest  Level FlightAware Approximate
Thu 12:57:00 PM 61.7706 -60.4224 221° Southwest  Level FlightAware Approximate
Thu 12:58:00 PM 61.6768 -60.5926 221° Southwest  Level FlightAware Approximate
Thu 12:58:26 PM 61.4333 -61.0000 221° Southwest 470 541 38,000  Level Montreal Center
Thu 12:59:00 PM 61.5829 -60.7617 221° Southwest  Level FlightAware Approximate
Thu 12:59:26 PM 61.3333 -61.1500 216° Southwest 470 541 38,000  Level Montreal Center
Thu 01:00:00 PM 61.4887 -60.9298 220° Southwest  Level FlightAware Approximate
Thu 01:00:51 PM 61.2000 -61.4500 227° Southwest 470 541 38,000  Level Gander Center
Thu 01:01:00 PM 61.3943 -61.0969 220° Southwest  Level FlightAware Approximate
Thu 01:02:00 PM 61.3000 -61.2635 221° Southwest  Level FlightAware Approximate
Thu 01:02:23 PM 61.0333 -61.7667 223° Southwest 470 541 38,000  Level Gander Center
Thu 01:03:00 PM 61.2064 -61.4315 221° Southwest  Level FlightAware Approximate
Thu 01:03:23 PM 60.9333 -61.9333 219° Southwest 470 541 38,000  Level Gander Center
Thu 01:04:00 PM 61.1126 -61.5986 221° Southwest  Level FlightAware Approximate
Thu 01:04:23 PM 60.8333 -62.1000 219° Southwest 480 552 38,000  Level Gander Center
Thu 01:05:23 PM 60.7333 -62.3000 224° Southwest 480 552 38,000 -200 Level Gander Center
Thu 01:06:23 PM 60.6333 -62.5000 224° Southwest 480 552 37,600 -450 Descending Gander Center
Thu 01:07:23 PM 60.5667 -62.7333 240° Southwest 480 552 37,100 -500 Descending Gander Center
Thu 01:08:23 PM 60.5167 -62.9667 247° West 480 552 36,600 -500 Descending Gander Center
Thu 01:09:23 PM 60.4667 -63.2333 249° West 480 552 36,100 -300 Descending Gander Center
Thu 01:10:23 PM 60.4167 -63.4667 247° West 480 552 36,000 -50 Descending Gander Center
Thu 01:11:23 PM 60.3833 -63.7333 256° West 480 552 36,000  Level Gander Center
Thu 01:12:23 PM 60.3167 -64.0000 243° Southwest 480 552 36,000  Level Gander Center
Thu 01:13:23 PM 60.2667 -64.2333 247° West 480 552 36,000  Level Gander Center
Thu 01:14:23 PM 60.2333 -64.5000 256° West 480 552 36,000  Level Gander Center
Thu 01:15:23 PM 60.1667 -64.7667 243° Southwest 490 564 36,000  Level Gander Center
Thu 01:16:23 PM 60.1333 -64.9833 253° West 480 552 36,000  Level Gander Center
Thu 01:17:23 PM 60.0667 -65.2167 240° Southwest 480 552 36,000  Level Gander Center
Thu 01:18:23 PM 59.9500 -65.4000 218° Southwest 470 541 36,000  Level Gander Center
Thu 01:19:23 PM 59.8667 -65.5833 228° Southwest 470 541 36,000  Level Gander Center
Thu 01:20:23 PM 59.7667 -65.7500 220° Southwest 470 541 36,000  Level Gander Center
Thu 01:21:23 PM 59.6667 -65.9333 223° Southwest 470 541 36,000  Level Gander Center
Thu 01:22:23 PM 59.5667 -66.0833 217° Southwest 480 552 36,000  Level Gander Center
Thu 01:23:23 PM 59.4667 -66.2667 223° Southwest 470 541 36,000  Level Gander Center
Thu 01:24:23 PM 59.3667 -66.4500 223° Southwest 470 541 36,000  Level Gander Center
Thu 01:25:23 PM 59.2667 -66.6000 217° Southwest 470 541 36,000  Level Gander Center
Thu 01:26:23 PM 59.1500 -66.7667 216° Southwest 470 541 36,000  Level Gander Center
Thu 01:27:23 PM 59.0667 -66.9167 223° Southwest 470 541 36,000  Level Gander Center
Thu 01:28:23 PM 58.9667 -67.1000 223° Southwest 470 541 36,000  Level Gander Center
Thu 01:29:23 PM 58.8667 -67.2500 218° Southwest 470 541 36,000  Level Gander Center
Thu 01:30:23 PM 58.7667 -67.4167 221° Southwest 470 541 36,000  Level Gander Center
Thu 01:31:23 PM 58.6500 -67.5667 214° Southwest 470 541 36,000  Level Gander Center
Thu 01:32:23 PM 58.5667 -67.7333 226° Southwest 470 541 36,000  Level Gander Center
Thu 01:33:23 PM 58.4500 -67.8833 214° Southwest 470 541 36,000  Level Gander Center
Thu 01:34:23 PM 58.3667 -68.0500 226° Southwest 480 552 36,000  Level Gander Center
Thu 01:35:23 PM 58.2500 -68.2000 214° Southwest 480 552 36,000  Level Gander Center
Thu 01:36:23 PM 58.1500 -68.3667 221° Southwest 480 552 36,000  Level Gander Center
Thu 01:37:59 PM 57.9833 -68.5333 208° Southwest 470 541 36,000  Level Montreal Center
Thu 01:38:59 PM 57.8833 -68.7167 224° Southwest 470 541 36,000  Level Montreal Center
Thu 01:40:59 PM 57.6667 -68.9667 212° Southwest 470 541 36,000  Level Montreal Center
Thu 01:41:59 PM 57.5667 -69.1167 219° Southwest 470 541 36,000  Level Montreal Center
Thu 01:42:59 PM 57.4500 -69.2667 215° Southwest 470 541 36,000  Level Montreal Center
Thu 01:43:59 PM 57.3500 -69.4000 216° Southwest 470 541 36,000  Level Montreal Center
Thu 01:44:59 PM 57.2500 -69.5500 219° Southwest 470 541 36,000  Level Montreal Center
Thu 01:45:59 PM 57.1333 -69.7000 215° Southwest 470 541 36,000  Level Montreal Center
Thu 01:46:59 PM 57.0333 -69.8333 216° Southwest 470 541 36,000  Level Montreal Center
Thu 01:47:59 PM 56.9333 -69.9667 216° Southwest 470 541 36,000  Level Montreal Center
Thu 01:48:59 PM 56.8167 -70.1167 215° Southwest 470 541 36,000  Level Montreal Center
Thu 01:49:59 PM 56.7167 -70.2167 209° Southwest 470 541 36,000  Level Montreal Center
Thu 01:50:59 PM 56.6000 -70.4000 221° Southwest 470 541 36,000  Level Montreal Center
Thu 01:51:59 PM 56.4833 -70.5333 212° Southwest 470 541 36,000  Level Montreal Center
Thu 01:52:59 PM 56.3667 -70.6333 205° Southwest 470 541 36,000  Level Montreal Center
Thu 01:53:59 PM 56.2833 -70.7667 222° Southwest 470 541 36,000  Level Montreal Center
Thu 01:54:59 PM 56.1667 -70.9167 216° Southwest 470 541 36,000  Level Montreal Center
Thu 01:55:59 PM 56.0500 -71.0500 213° Southwest 460 529 36,000  Level Montreal Center
Thu 01:56:59 PM 55.9500 -71.1833 217° Southwest 470 541 36,000  Level Montreal Center
Thu 01:57:59 PM 55.8500 -71.3167 217° Southwest 470 541 36,000  Level Montreal Center
Thu 01:58:59 PM 55.7333 -71.4167 206° Southwest 470 541 36,000  Level Montreal Center
Thu 01:59:59 PM 55.6167 -71.5833 219° Southwest 470 541 36,000  Level Montreal Center
Thu 02:00:59 PM 55.5000 -71.7167 213° Southwest 470 541 36,000  Level Montreal Center
Thu 02:01:59 PM 55.3833 -71.8333 210° Southwest 470 541 36,000  Level Montreal Center
Thu 02:02:59 PM 55.3000 -71.9333 214° Southwest 470 541 36,000  Level Montreal Center
Thu 02:03:59 PM 55.1833 -72.0667 213° Southwest 470 541 36,000  Level Montreal Center
Thu 02:04:59 PM 55.0667 -72.2000 213° Southwest 470 541 36,000  Level Montreal Center
Thu 02:05:59 PM 54.9500 -72.3333 213° Southwest 470 541 36,000  Level Montreal Center
Thu 02:06:59 PM 54.8500 -72.4500 214° Southwest 470 541 36,000  Level Montreal Center
Thu 02:07:59 PM 54.7333 -72.5833 213° Southwest 470 541 36,000  Level Montreal Center
Thu 02:08:59 PM 54.6333 -72.7000 214° Southwest 470 541 36,000  Level Montreal Center
Thu 02:09:59 PM 54.5333 -72.8333 218° Southwest 470 541 36,000  Level Montreal Center
Thu 02:10:59 PM 54.4000 -72.9500 207° Southwest 470 541 36,000  Level Montreal Center
Thu 02:11:59 PM 54.3000 -73.0833 218° Southwest 470 541 36,000  Level Montreal Center
Thu 02:12:59 PM 54.1833 -73.2000 210° Southwest 460 529 36,000  Level Montreal Center
Thu 02:13:59 PM 54.0667 -73.3000 207° Southwest 470 541 36,000  Level Montreal Center
Thu 02:14:59 PM 53.9667 -73.4167 214° Southwest 460 529 36,000  Level Montreal Center
Thu 02:15:59 PM 53.8500 -73.5333 211° Southwest 460 529 36,000  Level Montreal Center
Thu 02:16:59 PM 53.7500 -73.6500 215° Southwest 460 529 36,000  Level Montreal Center
Thu 02:17:59 PM 53.6333 -73.7500 207° Southwest 460 529 36,000  Level Montreal Center
Thu 02:18:59 PM 53.5167 -73.8667 211° Southwest 460 529 36,000  Level Montreal Center
Thu 02:19:59 PM 53.4000 -73.9500 203° Southwest 460 529 36,000  Level Montreal Center
Thu 02:20:59 PM 53.2833 -74.0500 207° Southwest 460 529 36,000  Level Montreal Center
Thu 02:21:59 PM 53.1667 -74.1333 203° Southwest 460 529 36,000  Level Montreal Center
Thu 02:22:59 PM 53.0500 -74.2333 207° Southwest 460 529 36,000  Level Montreal Center
Thu 02:23:59 PM 52.9500 -74.3500 215° Southwest 460 529 36,000  Level Montreal Center
Thu 02:24:59 PM 52.8333 -74.4333 203° Southwest 460 529 36,000  Level Montreal Center
Thu 02:25:59 PM 52.7167 -74.5167 203° Southwest 460 529 36,000  Level Montreal Center
Thu 02:26:59 PM 52.5833 -74.6000 201° Southwest 460 529 36,000  Level Montreal Center
Thu 02:27:59 PM 52.4833 -74.7167 215° Southwest 460 529 36,000  Level Montreal Center
Thu 02:28:59 PM 52.3500 -74.8000 201° Southwest 460 529 36,000  Level Montreal Center
Thu 02:29:59 PM 52.2500 -74.9000 211° Southwest 450 518 36,000  Level Montreal Center
Thu 02:30:59 PM 52.1333 -74.9833 204° Southwest 460 529 36,000  Level Montreal Center
Thu 02:31:59 PM 52.0167 -75.0667 204° Southwest 470 541 36,000  Level Montreal Center
Thu 02:32:59 PM 51.9000 -75.1667 208° Southwest 460 529 36,000  Level Montreal Center
Thu 02:33:59 PM 51.7833 -75.2500 204° Southwest 460 529 36,000  Level Montreal Center
Thu 02:34:59 PM 51.6667 -75.3333 204° Southwest 460 529 36,000  Level Montreal Center
Thu 02:35:59 PM 51.5500 -75.4167 204° Southwest 450 518 36,000  Level Montreal Center
Thu 02:36:59 PM 51.4333 -75.5333 212° Southwest 450 518 36,000  Level Montreal Center
Thu 02:37:59 PM 51.3167 -75.6167 204° Southwest 450 518 36,000  Level Montreal Center
Thu 02:38:59 PM 51.2000 -75.7000 204° Southwest 450 518 36,000  Level Montreal Center
Thu 02:39:59 PM 51.0833 -75.7833 204° Southwest 450 518 36,000  Level Montreal Center
Thu 02:40:59 PM 50.9833 -75.8500 203° Southwest 450 518 36,000  Level Montreal Center
Thu 02:41:59 PM 50.8500 -75.9667 209° Southwest 450 518 36,000  Level Montreal Center
Thu 02:42:59 PM 50.7500 -76.0500 208° Southwest 460 529 36,000  Level Montreal Center
Thu 02:43:59 PM 50.6333 -76.1167 200° South 450 518 36,000  Level Montreal Center
Thu 02:44:59 PM 50.5167 -76.2000 204° Southwest 450 518 36,000  Level Montreal Center
Thu 02:45:59 PM 50.4000 -76.2833 204° Southwest 450 518 36,000  Level Montreal Center
Thu 02:46:59 PM 50.2833 -76.3833 209° Southwest 450 518 36,000  Level Montreal Center
Thu 02:47:59 PM 50.1833 -76.4667 208° Southwest 460 529 36,000  Level Montreal Center
Thu 02:48:59 PM 50.0333 -76.5500 200° South 460 529 36,000  Level Montreal Center
Thu 02:49:59 PM 49.9333 -76.6167 203° Southwest 460 529 36,000  Level Montreal Center
Thu 02:50:59 PM 49.8000 -76.7167 206° Southwest 460 529 36,000  Level Montreal Center
Thu 02:51:59 PM 49.7000 -76.8000 208° Southwest 460 529 36,000  Level Montreal Center
Thu 02:52:59 PM 49.5833 -76.8667 200° South 460 529 36,000  Level Montreal Center
Thu 02:53:59 PM 49.4667 -76.9500 205° Southwest 460 529 36,000  Level Montreal Center
Thu 02:54:59 PM 49.3500 -77.0167 200° South 480 552 36,000  Level Montreal Center
Thu 02:55:59 PM 49.2333 -77.1167 209° Southwest 440 506 36,000  Level Montreal Center
Thu 02:56:59 PM 49.1167 -77.2000 205° Southwest 460 529 36,000  Level Montreal Center
Thu 02:57:59 PM 49.0000 -77.2667 201° Southwest 460 529 36,000  Level Montreal Center
Thu 02:58:59 PM 48.8667 -77.3500 202° Southwest 460 529 36,000  Level Montreal Center
Thu 02:59:59 PM 48.7500 -77.4500 209° Southwest 460 529 36,000  Level Montreal Center
Thu 03:05:50 PM 48.0750 -77.8810 209° Southwest 470 541 36,000  Level FlightAware ADS-B
Thu 03:06:25 PM 48.0080 -77.9190 201° Southwest 471 542 36,000  Level FlightAware ADS-B
Thu 03:07:19 PM 47.9040 -77.9800 201° Southwest 469 540 36,000  Level FlightAware ADS-B
Thu 03:07:58 PM 47.8360 -78.0180 201° Southwest 469 540 36,000  Level FlightAware ADS-B
Thu 03:08:32 PM 47.7780 -78.0520 202° Southwest 469 540 36,000  Level FlightAware ADS-B
Thu 03:09:08 PM 47.6730 -78.1140 202° Southwest 467 537 36,000  Level FlightAware ADS-B
Thu 03:09:43 PM 47.6030 -78.1540 201° Southwest 467 537 36,000  Level FlightAware ADS-B
Thu 03:10:26 PM 47.5160 -78.2040 201° Southwest 467 537 36,000  Level FlightAware ADS-B
Thu 03:11:02 PM 47.4440 -78.2450 201° Southwest 467 537 36,000  Level FlightAware ADS-B
Thu 03:11:35 PM 47.3790 -78.2830 202° Southwest 467 537 36,000  Level FlightAware ADS-B
Thu 03:12:16 PM 47.2970 -78.3290 201° Southwest 468 539 36,000  Level FlightAware ADS-B
Thu 03:12:52 PM 47.2220 -78.3720 201° Southwest 468 539 36,000  Level FlightAware ADS-B
Thu 03:13:34 PM 47.1370 -78.4200 201° Southwest 468 539 36,000  Level FlightAware ADS-B
Thu 03:14:15 PM 47.0550 -78.4660 201° Southwest 467 537 36,000  Level FlightAware ADS-B
Thu 03:14:50 PM 46.9860 -78.5050 201° Southwest 468 539 36,000  Level FlightAware ADS-B
Thu 03:15:34 PM 46.8950 -78.5560 201° Southwest 469 540 36,000  Level FlightAware ADS-B
Thu 03:16:02 PM 46.8400 -78.5870 201° Southwest 469 540 36,000  Level FlightAware ADS-B
Thu 03:17:14 PM 46.6930 -78.6690 201° Southwest 470 541 36,000  Level FlightAware ADS-B
Thu 03:17:46 PM 46.6280 -78.7050 201° Southwest 472 543 36,000  Level FlightAware ADS-B
Thu 03:18:18 PM 46.5630 -78.7410 201° Southwest 472 543 36,000  Level FlightAware ADS-B
Thu 03:18:56 PM 46.4830 -78.7850 201° Southwest 471 542 36,000  Level FlightAware ADS-B
Thu 03:19:40 PM 46.3940 -78.8330 200° South 473 544 36,000  Level FlightAware ADS-B
Thu 03:20:32 PM 46.2870 -78.8920 201° Southwest 474 545 36,000  Level FlightAware ADS-B
Thu 03:21:02 PM 46.2260 -78.9250 201° Southwest 473 544 36,000  Level FlightAware ADS-B
Thu 03:21:46 PM 46.1370 -78.9740 201° Southwest 472 543 36,000  Level FlightAware ADS-B
Thu 03:22:54 PM 45.9990 -79.0480 200° South 471 542 36,000  Level FlightAware ADS-B
Thu 03:23:25 PM 45.9370 -79.0820 201° Southwest 470 541 36,000  Level FlightAware ADS-B
Thu 03:24:02 PM 45.8600 -79.1230 200° South 468 539 36,000  Level FlightAware ADS-B
Thu 03:24:44 PM 45.7760 -79.1680 200° South 467 537 36,000  Level FlightAware ADS-B
Thu 03:25:25 PM 45.6940 -79.2120 201° Southwest 467 537 36,000  Level FlightAware ADS-B
Thu 03:26:06 PM 45.6110 -79.2560 200° South 467 537 36,000  Level FlightAware ADS-B
Thu 03:26:46 PM 45.5280 -79.3010 201° Southwest 467 537 36,000  Level FlightAware ADS-B
Thu 03:27:25 PM 45.4500 -79.3420 200° South 467 537 36,000  Level FlightAware ADS-B
Thu 03:28:01 PM 45.3790 -79.3800 201° Southwest 468 539 36,000  Level FlightAware ADS-B
Thu 03:28:37 PM 45.3070 -79.4170 200° South 469 540 36,000  Level FlightAware ADS-B
Thu 03:29:28 PM 45.2040 -79.4710 200° South 469 540 36,000  Level FlightAware ADS-B
Thu 03:29:58 PM 45.1400 -79.5050 201° Southwest 470 541 36,000  Level FlightAware ADS-B
Thu 03:30:36 PM 45.0660 -79.5430 200° South 470 541 36,000  Level FlightAware ADS-B
Thu 03:31:17 PM 44.9820 -79.5870 200° South 468 539 36,000  Level FlightAware ADS-B
Thu 03:31:47 PM 44.9210 -79.6190 200° South 468 539 36,000  Level FlightAware ADS-B
Thu 03:32:26 PM 44.8430 -79.6590 200° South 467 537 36,000  Level FlightAware ADS-B
Thu 03:33:27 PM 44.7160 -79.7250 200° South 467 537 36,000  Level FlightAware ADS-B
Thu 03:34:02 PM 44.6440 -79.7620 200° South 467 537 36,000  Level FlightAware ADS-B
Thu 03:34:42 PM 44.5670 -79.8090 204° Southwest 464 534 36,000  Level FlightAware ADS-B
Thu 03:35:17 PM 44.5050 -79.8610 211° Southwest 462 532 36,000  Level FlightAware ADS-B
Thu 03:36:02 PM 44.4220 -79.9370 213° Southwest 460 529 36,000  Level FlightAware ADS-B
Thu 03:36:41 PM 44.3520 -80.0000 213° Southwest 459 528 36,000  Level FlightAware ADS-B
Thu 03:37:14 PM 44.2940 -80.0530 213° Southwest 458 527 36,000  Level FlightAware ADS-B
Thu 03:37:46 PM 44.2380 -80.1030 213° Southwest 458 527 36,000  Level FlightAware ADS-B
Thu 03:38:34 PM 44.1510 -80.1800 212° Southwest 457 526 36,000  Level FlightAware ADS-B
Thu 03:39:42 PM 44.0350 -80.2830 213° Southwest 456 525 36,000  Level FlightAware ADS-B
Thu 03:40:07 PM 43.9850 -80.3280 213° Southwest 457 526 36,000  Level FlightAware ADS-B
Thu 03:41:06 PM 43.8800 -80.4200 212° Southwest 458 527 36,000  Level FlightAware ADS-B
Thu 03:41:45 PM 43.8110 -80.4810 213° Southwest 456 525 36,000  Level FlightAware ADS-B
Thu 03:42:17 PM 43.7530 -80.5320 212° Southwest 455 524 36,000  Level FlightAware ADS-B
Thu 03:42:51 PM 43.6900 -80.5860 212° Southwest 454 522 36,000  Level FlightAware ADS-B
Thu 03:43:27 PM 43.6260 -80.6430 213° Southwest 453 521 36,000  Level FlightAware ADS-B
Thu 03:44:31 PM 43.5140 -80.7400 212° Southwest 456 525 36,000  Level FlightAware ADS-B
Thu 03:45:09 PM 43.4480 -80.7970 212° Southwest 457 526 36,000  Level FlightAware ADS-B
Thu 03:45:58 PM 43.3590 -80.8740 212° Southwest 457 526 36,000  Level FlightAware ADS-B
Thu 03:46:28 PM 43.3050 -80.9210 212° Southwest 456 525 36,000  Level FlightAware ADS-B
Thu 03:47:33 PM 43.1890 -81.0200 212° Southwest 455 524 36,000  Level FlightAware ADS-B
Thu 03:48:08 PM 43.1280 -81.0720 212° Southwest 455 524 36,000  Level FlightAware ADS-B
Thu 03:48:48 PM 43.0540 -81.1350 212° Southwest 454 522 36,000  Level FlightAware ADS-B
Thu 03:49:14 PM 43.0100 -81.1650 207° Southwest 458 527 36,000  Level FlightAware ADS-B
Thu 03:49:56 PM 42.9260 -81.2170 204° Southwest 456 525 36,000  Level FlightAware ADS-B
Thu 03:50:36 PM 42.8510 -81.2640 205° Southwest 457 526 36,000  Level FlightAware ADS-B
Thu 03:51:20 PM 42.7650 -81.3180 205° Southwest 459 528 36,000  Level FlightAware ADS-B
Thu 03:52:25 PM 42.6390 -81.3950 204° Southwest 457 526 36,000  Level FlightAware ADS-B
Thu 03:52:53 PM 42.5840 -81.4290 204° Southwest 457 526 36,000  Level FlightAware ADS-B
Thu 03:53:25 PM 42.5220 -81.4660 204° Southwest 456 525 36,000  Level FlightAware ADS-B
Thu 03:53:54 PM 42.4700 -81.4980 204° Southwest 455 524 36,000  Level FlightAware ADS-B
Thu 03:54:58 PM 42.3430 -81.5750 204° Southwest 455 524 36,000  Level FlightAware ADS-B
Thu 03:55:38 PM 42.2680 -81.6200 204° Southwest 455 524 36,000  Level FlightAware ADS-B
Thu 03:56:08 PM 42.2110 -81.6550 204° Southwest 455 524 36,000  Level FlightAware ADS-B
Thu 03:56:51 PM 42.1270 -81.7050 204° Southwest 455 524 36,000  Level FlightAware ADS-B
Thu 03:57:18 PM 42.0800 -81.7340 205° Southwest 454 522 36,000  Level FlightAware ADS-B
Thu 03:58:28 PM 41.9410 -81.8170 204° Southwest 455 524 36,000  Level FlightAware ADS-B
Thu 03:58:56 PM 41.8890 -81.8480 204° Southwest 456 525 36,000  Level FlightAware ADS-B
Thu 03:59:29 PM 41.8240 -81.8870 204° Southwest 456 525 36,000  Level FlightAware ADS-B
Thu 04:00:08 PM 41.7480 -81.9320 204° Southwest 455 524 36,000  Level FlightAware ADS-B
Thu 04:00:40 PM 41.6860 -81.9690 204° Southwest 453 521 36,000  Level FlightAware ADS-B
Thu 04:01:14 PM 41.6200 -82.0080 204° Southwest 451 519 36,000  Level FlightAware ADS-B
Thu 04:02:23 PM 41.4920 -82.0830 204° Southwest 450 518 36,000  Level FlightAware ADS-B
Thu 04:02:57 PM 41.4250 -82.1230 204° Southwest 450 518 36,000  Level FlightAware ADS-B
Thu 04:03:31 PM 41.3590 -82.1590 202° Southwest 454 522 36,000  Level FlightAware ADS-B
Thu 04:04:09 PM 41.2820 -82.1870 195° South 459 528 36,000  Level FlightAware ADS-B
Thu 04:04:42 PM 41.2150 -82.2120 196° South 458 527 36,000  Level FlightAware ADS-B
Thu 04:05:16 PM 41.1490 -82.2370 196° South 457 526 36,000  Level FlightAware ADS-B
Thu 04:05:58 PM 41.0600 -82.2690 195° South 456 525 36,000  Level FlightAware ADS-B
Thu 04:06:35 PM 40.9870 -82.2950 195° South 456 525 36,000  Level FlightAware ADS-B
Thu 04:07:08 PM 40.9190 -82.3190 195° South 456 525 36,000  Level FlightAware ADS-B
Thu 04:07:41 PM 40.8530 -82.3420 195° South 455 524 36,000  Level FlightAware ADS-B
Thu 04:08:09 PM 40.7950 -82.3630 195° South 454 522 36,000  Level FlightAware ADS-B
Thu 04:08:54 PM 40.7010 -82.3960 195° South 452 520 36,000  Level FlightAware ADS-B
Thu 04:09:27 PM 40.6380 -82.4180 195° South 452 520 36,000  Level FlightAware ADS-B
Thu 04:10:09 PM 40.5540 -82.4480 195° South 454 522 36,000  Level FlightAware ADS-B
Thu 04:11:05 PM 40.4380 -82.4890 195° South 456 525 36,000  Level FlightAware ADS-B
Thu 04:11:46 PM 40.3590 -82.5160 195° South 456 525 36,000  Level FlightAware ADS-B
Thu 04:12:13 PM 40.3020 -82.5360 195° South 456 525 36,000  Level FlightAware ADS-B
Thu 04:13:09 PM 40.1840 -82.5760 195° South 457 526 36,000  Level FlightAware ADS-B
Thu 04:14:03 PM 40.0700 -82.5920 186° South 469 540 36,000  Level FlightAware ADS-B
Thu 04:14:38 PM 39.9950 -82.5980 184° South 468 539 36,000  Level FlightAware ADS-B
Thu 04:15:20 PM 39.9040 -82.6050 183° South 469 540 36,000  Level FlightAware ADS-B
Thu 04:15:52 PM 39.8310 -82.6100 183° South 470 541 36,000  Level FlightAware ADS-B
Thu 04:16:31 PM 39.7500 -82.6160 183° South 470 541 36,000  Level FlightAware ADS-B
Thu 04:17:08 PM 39.6660 -82.6210 183° South 465 535 36,000  Level FlightAware ADS-B
Thu 04:17:42 PM 39.5970 -82.6260 183° South 464 534 36,000  Level FlightAware ADS-B
Thu 04:18:16 PM 39.5240 -82.6310 183° South 465 535 36,000  Level FlightAware ADS-B
Thu 04:18:51 PM 39.4470 -82.6360 183° South 464 534 36,000  Level FlightAware ADS-B
Thu 04:19:23 PM 39.3790 -82.6400 183° South 464 534 36,000  Level FlightAware ADS-B
Thu 04:19:57 PM 39.3060 -82.6450 183° South 464 534 36,000  Level FlightAware ADS-B
Thu 04:20:28 PM 39.2430 -82.6490 183° South 462 532 36,000  Level FlightAware ADS-B
Thu 04:21:32 PM 39.1050 -82.6590 183° South 457 526 36,000  Level FlightAware ADS-B
Thu 04:22:04 PM 39.0350 -82.6630 183° South 457 526 36,000  Level FlightAware ADS-B
Thu 04:22:48 PM 38.9410 -82.6700 183° South 458 527 36,000  Level FlightAware ADS-B
Thu 04:23:46 PM 38.8190 -82.6780 183° South 458 527 36,000  Level FlightAware ADS-B
Thu 04:24:22 PM 38.7420 -82.6830 183° South 460 529 36,000  Level FlightAware ADS-B
Thu 04:25:22 PM 38.6140 -82.6910 183° South 463 533 36,000  Level FlightAware ADS-B
Thu 04:25:38 PM 38.5800 -82.6930 183° South 464 534 36,000  Level FlightAware ADS-B
Thu 04:26:24 PM 38.4820 -82.7000 183° South 463 533 36,000  Level FlightAware ADS-B
Thu 04:27:03 PM 38.4110 -82.7030 182° South 463 533 36,000  Level FlightAware ADS-B
Thu 04:27:41 PM 38.3220 -82.7100 184° South 450 518 36,000  Level FlightAware ADS-B
Thu 04:28:19 PM 38.2550 -82.7130 182° South 450 518 36,000  Level FlightAware ADS-B
Thu 04:28:56 PM 38.1890 -82.7160 182° South 450 518 36,000  Level FlightAware ADS-B
Thu 04:29:41 PM 38.0725 -82.7261 184° South 438 504 36,000  Level FlightAware ADS-B
Thu 04:30:14 PM 38.0039 -82.7306 183° South 439 505 36,000  Level FlightAware ADS-B
Thu 04:30:45 PM 37.9418 -82.7346 183° South 442 509 36,000  Level FlightAware ADS-B
Thu 04:31:24 PM 37.8649 -82.7394 183° South 439 505 36,000  Level FlightAware ADS-B
Thu 04:31:59 PM 37.7916 -82.7441 183° South 439 505 36,000  Level FlightAware ADS-B
Thu 04:32:13 PM 37.7635 -82.7470 185° South 430 495 36,000  Level FlightAware ADS-B
Thu 04:32:34 PM 37.7235 -82.7540 188° South 423 487 36,000  Level FlightAware ADS-B
Thu 04:33:17 PM 37.6425 -82.7811 195° South 407 468 36,000  Level FlightAware ADS-B
Thu 04:34:07 PM 37.5610 -82.8280 205° Southwest 391 450 36,000  Level FlightAware ADS-B
Thu 04:34:40 PM 37.5080 -82.8640 208° Southwest 392 451 36,000  Level FlightAware ADS-B
Thu 04:35:18 PM 37.4466 -82.9039 207° Southwest 394 453 36,000  Level FlightAware ADS-B
Thu 04:36:34 PM 37.3229 -82.9851 208° Southwest 394 453 36,000  Level FlightAware ADS-B
Thu 04:37:06 PM 37.2710 -83.0189 207° Southwest 396 456 36,000  Level FlightAware ADS-B
Thu 04:37:36 PM 37.2219 -83.0511 208° Southwest 397 457 36,000  Level FlightAware ADS-B
Thu 04:38:07 PM 37.1718 -83.0839 208° Southwest 399 459 36,000  Level FlightAware ADS-B
Thu 04:38:42 PM 37.1148 -83.1211 207° Southwest 400 460 36,000  Level FlightAware ADS-B
Thu 04:39:16 PM 37.0594 -83.1571 207° Southwest 401 461 36,000  Level FlightAware ADS-B
Thu 04:39:48 PM 37.0063 -83.1916 207° Southwest 403 464 36,000  Level FlightAware ADS-B
Thu 04:40:18 PM 36.9566 -83.2238 207° Southwest 403 464 36,000  Level FlightAware ADS-B
Thu 04:40:49 PM 36.9046 -83.2575 207° Southwest 403 464 36,000  Level FlightAware ADS-B
Thu 04:41:20 PM 36.8544 -83.2899 207° Southwest 403 464 36,000  Level FlightAware ADS-B
Thu 04:41:50 PM 36.8047 -83.3220 207° Southwest 402 463 36,000  Level FlightAware ADS-B
Thu 04:42:20 PM 36.7547 -83.3542 207° Southwest 401 461 36,000  Level FlightAware ADS-B
Thu 04:42:55 PM 36.6979 -83.3908 207° Southwest 400 460 36,000  Level FlightAware ADS-B
Thu 04:43:25 PM 36.6476 -83.4232 207° Southwest 399 459 36,000  Level FlightAware ADS-B
Thu 04:43:55 PM 36.5982 -83.4549 207° Southwest 400 460 36,000  Level FlightAware ADS-B
Thu 04:44:26 PM 36.5480 -83.4870 207° Southwest 400 460 36,000  Level FlightAware ADS-B
Thu 04:44:56 PM 36.4980 -83.5189 207° Southwest 399 459 36,000  Level FlightAware ADS-B
Thu 04:45:28 PM 36.4456 -83.5524 207° Southwest 399 459 36,000  Level FlightAware ADS-B
Thu 04:45:59 PM 36.3957 -83.5843 207° Southwest 398 458 36,000  Level FlightAware ADS-B
Thu 04:46:32 PM 36.3408 -83.6192 207° Southwest 399 459 36,000  Level FlightAware ADS-B
Thu 04:47:03 PM 36.2906 -83.6511 207° Southwest 400 460 36,000  Level FlightAware ADS-B
Thu 04:47:33 PM 36.2430 -83.6814 207° Southwest 400 460 36,000  Level FlightAware ADS-B
Thu 04:48:06 PM 36.1869 -83.7169 207° Southwest 394 453 36,000  Level FlightAware ADS-B
Thu 04:48:36 PM 36.1382 -83.7477 207° Southwest 393 452 36,000  Level FlightAware ADS-B
Thu 04:49:07 PM 36.0887 -83.7790 207° Southwest 391 450 36,000  Level FlightAware ADS-B
Thu 04:49:38 PM 36.0385 -83.8107 207° Southwest 390 449 36,000  Level FlightAware ADS-B
Thu 04:50:09 PM 35.9893 -83.8418 207° Southwest 389 448 36,000  Level FlightAware ADS-B
Thu 04:50:40 PM 35.9396 -83.8722 206° Southwest 393 452 36,000  Level FlightAware ADS-B
Thu 04:50:59 PM 35.9068 -83.8877 201° Southwest 404 465 36,000  Level FlightAware ADS-B
Thu 04:51:27 PM 35.8547 -83.9058 196° South 419 482 36,000  Level FlightAware ADS-B
Thu 04:51:57 PM 35.7967 -83.9199 191° South 425 489 36,000  Level FlightAware ADS-B
Thu 04:52:27 PM 35.7386 -83.9349 192° South 424 488 36,000  Level FlightAware ADS-B
Thu 04:52:58 PM 35.6796 -83.9496 191° South 422 486 36,000  Level FlightAware ADS-B
Thu 04:53:33 PM 35.6134 -83.9658 191° South 423 487 36,000  Level FlightAware ADS-B
Thu 04:54:06 PM 35.5518 -83.9807 191° South 423 487 36,000  Level FlightAware ADS-B
Thu 04:54:42 PM 35.4798 -83.9981 191° South 423 487 36,000  Level FlightAware ADS-B
Thu 04:55:13 PM 35.4207 -84.0123 191° South 422 486 36,000  Level FlightAware ADS-B
Thu 04:55:43 PM 35.3628 -84.0263 191° South 421 484 36,000  Level FlightAware ADS-B
Thu 04:56:17 PM 35.2978 -84.0420 191° South 420 483 36,000  Level FlightAware ADS-B
Thu 04:56:50 PM 35.2357 -84.0569 191° South 419 482 36,000  Level FlightAware ADS-B
Thu 04:57:20 PM 35.1778 -84.0708 191° South 421 484 36,000  Level FlightAware ADS-B
Thu 04:57:56 PM 35.1096 -84.0872 191° South 422 486 36,000  Level FlightAware ADS-B
Thu 04:58:27 PM 35.0494 -84.1015 191° South 423 487 36,000  Level FlightAware ADS-B
Thu 04:58:57 PM 34.9921 -84.1151 191° South 423 487 36,000  Level FlightAware ADS-B
Thu 04:59:37 PM 34.9143 -84.1337 191° South 427 491 36,000  Level FlightAware ADS-B
Thu 05:00:09 PM 34.8530 -84.1483 191° South 427 491 36,000  Level FlightAware ADS-B
Thu 05:00:39 PM 34.7941 -84.1623 191° South 429 494 36,000  Level FlightAware ADS-B
Thu 05:01:10 PM 34.7337 -84.1767 191° South 430 495 36,000  Level FlightAware ADS-B
Thu 05:01:56 PM 34.6448 -84.1977 191° South 431 496 36,000  Level FlightAware ADS-B
Thu 05:02:27 PM 34.5845 -84.2119 191° South 429 494 36,000  Level FlightAware ADS-B
Thu 05:02:57 PM 34.5255 -84.2259 191° South 429 494 36,000  Level FlightAware ADS-B
Thu 05:03:27 PM 34.4668 -84.2397 191° South 429 494 36,000  Level FlightAware ADS-B
Thu 05:03:57 PM 34.4074 -84.2538 191° South 429 494 36,000  Level FlightAware ADS-B
Thu 05:04:28 PM 34.3475 -84.2678 191° South 430 495 36,000  Level FlightAware ADS-B
Thu 05:05:23 PM 34.2440 -84.2920 191° South 428 493 36,000  Level FlightAware ADS-B
Thu 05:05:43 PM 34.2060 -84.3010 191° South 427 491 36,000 467 Level FlightAware ADS-B
Thu 05:06:53 PM 34.0670 -84.3340 191° South 430 495 36,700 550 Climbing FlightAware ADS-B
Thu 05:07:32 PM 33.9890 -84.3517 191° South 429 494 37,000 257 Climbing FlightAware ADS-B
Thu 05:08:03 PM 33.9294 -84.3655 191° South 426 490 37,000  Level FlightAware ADS-B
Thu 05:08:33 PM 33.8715 -84.3788 191° South 420 483 37,000  Level FlightAware ADS-B
Thu 05:09:04 PM 33.8121 -84.3926 191° South 420 483 37,000  Level FlightAware ADS-B
Thu 05:09:35 PM 33.7524 -84.4066 191° South 419 482 37,000  Level FlightAware ADS-B
Thu 05:10:06 PM 33.6966 -84.4195 191° South 419 482 37,000  Level FlightAware ADS-B
Thu 05:10:30 PM 33.6473 -84.4295 190° South 423 487 37,000  Level FlightAware ADS-B
Thu 05:11:01 PM 33.5873 -84.4338 183° South 429 494 37,000  Level FlightAware ADS-B
Thu 05:11:35 PM 33.5209 -84.4323 179° South 434 499 37,000  Level FlightAware ADS-B
Thu 05:12:08 PM 33.4512 -84.4313 179° South 434 499 37,000  Level FlightAware ADS-B
Thu 05:12:48 PM 33.3708 -84.4299 179° South 433 498 37,000  Level FlightAware ADS-B
Thu 05:13:36 PM 33.2749 -84.4279 179° South 433 498 37,000  Level FlightAware ADS-B
Thu 05:14:13 PM 33.2030 -84.4260 179° South 434 499 37,000  Level FlightAware ADS-B
Thu 05:14:52 PM 33.1240 -84.4250 179° South 433 498 37,000  Level FlightAware ADS-B
Thu 05:15:51 PM 33.0080 -84.4220 179° South 432 497 37,000  Level FlightAware ADS-B
Thu 05:16:58 PM 32.8730 -84.4200 179° South 430 495 37,000  Level FlightAware ADS-B
Thu 05:17:58 PM 32.7610 -84.4170 179° South 428 493 37,000  Level FlightAware ADS-B
Thu 05:18:40 PM 32.6760 -84.4160 179° South 429 494 37,000  Level FlightAware ADS-B
Thu 05:19:33 PM 32.5790 -84.4140 179° South 429 494 37,000  Level FlightAware ADS-B
Thu 05:20:21 PM 32.4980 -84.4120 179° South 429 494 37,000  Level FlightAware ADS-B
Thu 05:20:46 PM 32.4560 -84.4110 179° South 429 494 37,000  Level FlightAware ADS-B
Thu 05:21:34 PM 32.3750 -84.4100 179° South 429 494 37,000  Level FlightAware ADS-B
Thu 05:22:10 PM 32.3140 -84.4080 178° South 429 494 37,000  Level FlightAware ADS-B
Thu 05:22:34 PM 32.2740 -84.4070 179° South 429 494 37,000  Level FlightAware ADS-B
Thu 05:23:46 PM 32.1520 -84.4050 179° South 429 494 37,000  Level FlightAware ADS-B
Thu 05:24:11 PM 32.1100 -84.4040 179° South 429 494 37,000  Level FlightAware ADS-B
Thu 05:24:35 PM 32.0700 -84.4030 179° South 429 494 37,000  Level FlightAware ADS-B
Thu 05:25:35 PM 31.9690 -84.4010 179° South 429 494 37,000  Level FlightAware ADS-B
Thu 05:26:00 PM 31.9260 -84.4000 179° South 429 494 37,000  Level FlightAware ADS-B
Thu 05:26:34 PM 31.8690 -84.3990 179° South 429 494 37,000  Level FlightAware ADS-B
Thu 05:27:35 PM 31.6220 -84.3950 179° South 428 493 37,000  Level FlightAware ADS-B
Thu 05:27:54 PM 31.5760 -84.3940 179° South 429 494 37,000  Level FlightAware ADS-B
Thu 05:28:25 PM 30.1814 -83.8381 161° South 430 495 37,000  Level FlightAware ADS-B (KONZ)
Thu 05:29:01 PM 31.4400 -84.3910 339° North 430 495 37,000  Level FlightAware ADS-B
Thu 05:29:56 PM 31.3330 -84.3890 179° South 430 495 37,000  Level FlightAware ADS-B
Thu 05:30:58 PM 31.2070 -84.3870 179° South 432 497 37,000  Level FlightAware ADS-B
Thu 05:31:31 PM 31.1420 -84.3850 178° South 433 498 37,000  Level FlightAware ADS-B
Thu 05:32:04 PM 31.0743 -84.3840 179° South 433 498 37,000  Level FlightAware ADS-B (KONZ)
Thu 05:32:44 PM 30.9950 -84.3820 179° South 434 499 37,000  Level FlightAware ADS-B
Thu 05:33:14 PM 30.9350 -84.3812 179° South 434 499 37,000  Level FlightAware ADS-B (KONZ)
Thu 05:33:52 PM 30.8706 -84.3800 179° South 435 501 37,000  Level FlightAware ADS-B (KONZ)
Thu 05:34:34 PM 30.7722 -84.3781 179° South 435 501 37,000  Level FlightAware ADS-B (KONZ)
Thu 05:35:04 PM 30.7154 -84.3770 179° South 436 502 37,000  Level FlightAware ADS-B (KONZ)
Thu 05:35:44 PM 30.6383 -84.3701 176° South 446 513 37,000  Level FlightAware ADS-B (KONZ)
Thu 05:36:24 PM 30.5506 -84.3481 168° South 455 524 37,000  Level FlightAware ADS-B (KONZ)
Thu 05:37:02 PM 30.4737 -84.3156 160° South 466 536 37,000  Level FlightAware ADS-B (KONZ)
Thu 05:37:34 PM 30.4219 -84.2855 153° Southeast 474 545 37,000  Level FlightAware ADS-B (KONZ)
Thu 05:38:11 PM 30.3411 -84.2324 150° Southeast 473 544 37,000  Level FlightAware ADS-B (KONZ)
Thu 05:38:42 PM 30.2838 -84.1952 151° Southeast 472 543 37,000  Level FlightAware ADS-B (KONZ)
Thu 05:39:14 PM 30.2262 -84.1577 151° Southeast 471 542 37,000  Level FlightAware ADS-B (KONZ)
Thu 05:39:54 PM 30.1452 -84.1049 151° Southeast 469 540 37,000  Level FlightAware ADS-B (KONZ)
Thu 05:40:25 PM 30.0903 -84.0692 151° Southeast 469 540 37,000  Level FlightAware ADS-B (KONZ)
Thu 05:41:01 PM 30.0194 -84.0231 151° Southeast 469 540 37,000  Level FlightAware ADS-B (KONZ)
Thu 05:41:44 PM 29.9390 -83.9709 151° Southeast 471 542 37,000  Level FlightAware ADS-B (KONZ)
Thu 05:42:14 PM 29.8809 -83.9334 151° Southeast 472 543 37,000  Level FlightAware ADS-B (KONZ)
Thu 05:43:30 PM 29.7370 -83.8410 151° Southeast 472 543 37,000  Level FlightAware ADS-B
Thu 05:44:04 PM 29.6710 -83.7970 150° Southeast 470 541 37,000  Level FlightAware ADS-B
Thu 05:44:56 PM 29.5740 -83.7350 151° Southeast 462 532 37,000  Level FlightAware ADS-B
Thu 05:45:47 PM 29.4810 -83.6760 151° Southeast 461 531 37,000  Level FlightAware ADS-B
Thu 05:46:10 PM 29.4360 -83.6470 151° Southeast 462 532 37,000  Level FlightAware ADS-B
Thu 05:46:41 PM 29.3780 -83.6100 151° Southeast 464 534 37,000  Level FlightAware ADS-B
Thu 05:47:37 PM 29.2770 -83.5450 151° Southeast 463 533 37,000  Level FlightAware ADS-B
Thu 05:48:12 PM 29.2100 -83.5030 151° Southeast 464 534 37,000  Level FlightAware ADS-B
Thu 05:49:08 PM 29.1050 -83.4360 151° Southeast 461 531 37,000  Level FlightAware ADS-B
Thu 05:49:38 PM 29.0460 -83.3980 151° Southeast 462 532 37,000  Level FlightAware ADS-B
Thu 05:50:32 PM 28.9450 -83.3340 151° Southeast 463 533 37,000  Level FlightAware ADS-B
Thu 05:51:31 PM 28.8340 -83.2640 151° Southeast 466 536 37,000  Level FlightAware ADS-B
Thu 05:52:29 PM 28.7230 -83.1940 151° Southeast 467 537 37,000  Level FlightAware ADS-B
Thu 05:53:33 PM 28.6030 -83.1180 151° Southeast 472 543 37,000  Level FlightAware ADS-B
Thu 05:53:59 PM 28.5560 -83.0880 151° Southeast 471 542 37,000  Level FlightAware ADS-B
Thu 05:54:41 PM 28.4720 -83.0360 151° Southeast 468 539 37,000  Level FlightAware ADS-B
Thu 05:55:22 PM 28.3950 -82.9880 151° Southeast 467 537 37,000  Level FlightAware ADS-B
Thu 05:56:23 PM 28.2790 -82.9150 151° Southeast 473 544 37,000  Level FlightAware ADS-B
Thu 05:57:07 PM 28.1940 -82.8620 151° Southeast 470 541 37,000  Level FlightAware ADS-B
Thu 05:58:00 PM 28.0930 -82.7990 151° Southeast 462 532 37,000  Level FlightAware ADS-B
Thu 05:58:33 PM 28.0330 -82.7620 151° Southeast 462 532 37,000  Level FlightAware ADS-B
Thu 05:59:10 PM 27.9630 -82.7180 151° Southeast 462 532 37,000  Level FlightAware ADS-B
Thu 05:59:49 PM 27.8900 -82.6740 152° Southeast 461 531 37,000  Level FlightAware ADS-B
Thu 06:00:17 PM 27.8350 -82.6520 161° South 439 505 37,000  Level FlightAware ADS-B
Thu 06:00:46 PM 27.7770 -82.6490 177° South 430 495 37,000  Level FlightAware ADS-B
Thu 06:01:50 PM 27.6490 -82.6440 178° South 436 502 37,000  Level FlightAware ADS-B
Thu 06:02:22 PM 27.5840 -82.6420 178° South 437 503 37,000  Level FlightAware ADS-B
Thu 06:03:26 PM 27.4550 -82.6370 178° South 437 503 37,000  Level FlightAware ADS-B
Thu 06:04:25 PM 27.3340 -82.6330 178° South 438 504 37,000  Level FlightAware ADS-B
Thu 06:04:53 PM 27.2780 -82.6310 178° South 439 505 37,000  Level FlightAware ADS-B
Thu 06:05:28 PM 27.2070 -82.6280 178° South 439 505 37,000 -366 Level FlightAware ADS-B
Thu 06:06:15 PM 27.1100 -82.6250 178° South 438 504 36,500 -848 Descending FlightAware ADS-B
Thu 06:07:07 PM 27.0020 -82.6210 178° South 443 510 35,600 -1,000 Descending FlightAware ADS-B
Thu 06:07:27 PM 26.9640 -82.6200 179° South 442 509 35,300 -933 Descending FlightAware ADS-B
Thu 06:08:37 PM 26.8230 -82.6150 178° South 439 505 34,200 -1,000 Descending FlightAware ADS-B
Thu 06:09:21 PM 26.7310 -82.6120 178° South 441 507 33,400 -1,000 Descending FlightAware ADS-B
Thu 06:09:55 PM 26.6640 -82.6090 178° South 444 511 32,900 -824 Descending FlightAware ADS-B
Thu 06:11:03 PM 26.5190 -82.6040 178° South 453 521 32,000 -458 Descending FlightAware ADS-B
Thu 06:11:53 PM 26.4300 -82.6010 178° South 453 521 32,000  Level FlightAware ADS-B
Thu 06:12:42 PM 26.3430 -82.5970 178° South 453 521 32,000  Level FlightAware ADS-B
Thu 06:13:42 PM 26.2360 -82.5930 178° South 453 521 32,000  Level FlightAware ADS-B
Thu 06:14:42 PM 26.1290 -82.5890 178° South 453 521 32,000  Level FlightAware ADS-B
Thu 06:15:18 PM 26.0650 -82.5870 178° South 453 521 32,000  Level FlightAware ADS-B
Thu 06:16:30 PM 25.9370 -82.5820 178° South 453 521 32,000  Level FlightAware ADS-B
Thu 06:17:18 PM 25.8510 -82.5780 178° South 453 521 32,000  Level FlightAware ADS-B
Thu 06:18:06 PM 25.7660 -82.5750 178° South 453 521 32,000  Level FlightAware ADS-B
Thu 06:19:18 PM 25.6380 -82.5700 178° South 453 521 32,000  Level FlightAware ADS-B
Thu 06:20:10 PM 25.5450 -82.5670 178° South 453 521 32,000  Level FlightAware ADS-B
Thu 06:20:45 PM 25.4830 -82.5640 177° South 453 521 32,000  Level FlightAware ADS-B
Thu 06:20:57 PM 25.4610 -82.5630 178° South 453 521 32,000 -1,138 Level FlightAware ADS-B
Thu 06:22:41 PM 25.0580 -82.5540 179° South 839 966 29,800 -1,125 Descending FlightAware ADS-B
Thu 06:24:41 PM 24.8280 -82.5460 178° South 415 478 27,800 -723 Descending FlightAware ADS-B
Thu 06:25:52 PM 24.7160 -82.5420 178° South 399 459 27,500 -189 Descending FlightAware ADS-B
Thu 06:26:16 PM 24.6780 -82.5410 179° South 399 459 27,500  Level FlightAware ADS-B
Thu 06:26:52 PM 24.6220 -82.5390 178° South 399 459 27,500  Level FlightAware ADS-B
Thu 06:27:28 PM 24.5650 -82.5370 178° South 399 459 27,500  Level FlightAware ADS-B
Thu 06:28:17 PM 24.4890 -82.5340 178° South 399 459 27,500  Level FlightAware ADS-B
Thu 06:28:54 PM 24.4300 -82.5310 177° South 399 459 27,500 -4,000 Level FlightAware ADS-B
Thu 06:29:38 PM 24.2775 -82.5286 177° South 404 465 22,100 -3,173 Descending Miami Center
Thu 06:30:38 PM 24.1772 -82.5286 180° South 388 447 22,000 -50 Descending Miami Center
Thu 06:31:38 PM 24.0711 -82.5239 178° South 381 438 22,000  Level Miami Center
Thu 06:33:00 PM 23.9031 -82.5028 173° South  Level FlightAware Approximate
Thu 06:40:00 PM 23.0444 -82.4000 180° South  Level FlightAware Approximate
Thu 06:41:00 PM 22.9891 -82.4091 180° South  Level Estimated
Thu 06:42:00 PM 22.9891 -82.4091 180° South  Level Estimated
Thu 06:43:00 PM 22.9891 -82.4091 180° South  Level Estimated
Thu 06:44:00 PM 22.9891 -82.4091 180° South  Level Estimated
Thu 06:45:00 PM 22.9891 -82.4091 180° South  Level Estimated
Thu 06:46:00 PM 22.9891 -82.4091 180° South  Level Estimated
Thu 06:47:00 PM 22.9891 -82.4091 180° South  Level Estimated
Thu 06:48:00 PM 22.9891 -82.4091 180° South  Level Estimated
Thu 06:49:00 PM 22.9891 -82.4091 180° South  Level Estimated
Thu 06:50:00 PM 22.9891 -82.4091 180° South  Level Estimated
Thu 06:51:00 PM 22.9891 -82.4091 180° South  Level Estimated
Thu 06:52:00 PM 22.9891 -82.4091 180° South  Level Estimated
Thu 06:53:00 PM 22.9891 -82.4091 180° South  Level Estimated
Thu 06:54:00 PM 22.9891 -82.4091 180° South  Level Estimated
Thu 06:55:00 PM 22.9891 -82.4091 180° South  Level Estimated
Thu 06:56:00 PM 22.9891 -82.4091 180° South  Level Estimated
Thu 06:57:00 PM 22.9891 -82.4091 180° South  Level Estimated
Thu 06:58:00 PM 22.9891 -82.4091 180° South  Level Estimated
Thu 06:59:00 PM 22.9891 -82.4091 180° South  Level Estimated
Thu 07:00:00 PM 22.9891 -82.4091 180° South  Level Estimated
Thu 07:01:00 PM 22.9891 -82.4091 180° South  Level Estimated
Thu 07:02:00 PM 22.9891 -82.4091 180° South  Level Estimated
Thu 07:03:00 PM 22.9891 -82.4091 180° South  Level Estimated

Login

Don't have an account? Register now (free) for customized features, flight alerts, and more!